<?xml version="1.0" encoding="UTF-8" standalone="no" ?><gpx xmlns="http://www.topografix.com/GPX/1/1" xmlns:gpxx="http://www.garmin.com/xmlschemas/GpxExtensions/v3" xmlns:gpxtpx="http://www.garmin.com/xmlschemas/TrackPointExtension/v1" creator="Foretrex 301" version="1.1" xmlns:xsi="http://www.w3.org/2001/XMLSchema-instance" xsi:schemaLocation="http://www.topografix.com/GPX/1/1 http://www.topografix.com/GPX/1/1/gpx.xsd http://www.garmin.com/xmlschemas/GpxExtensions/v3 http://www.garmin.com/xmlschemas/GpxExtensions/v3/GpxExtensionsv3.xsd"><metadata><link href="http://www.garmin.com"><text>Garmin International</text></link><time>2011-08-31T13:38:39Z</time></metadata><trk><name>ACTIVE LOG: 31 AUG 2011 08:56</name><trkseg><trkpt lat="52.003310" lon="-2.225586"><ele>49.65</ele><time>2011-08-31T08:56:53Z</time></trkpt><trkpt lat="52.003310" lon="-2.225587"><ele>49.65</ele><time>2011-08-31T08:57:16Z</time></trkpt><trkpt lat="52.003307" lon="-2.225578"><ele>49.65</ele><time>2011-08-31T08:57:30Z</time></trkpt><trkpt lat="52.003305" lon="-2.225578"><ele>49.65</ele><time>2011-08-31T08:57:55Z</time></trkpt><trkpt lat="52.003250" lon="-2.225523"><ele>50.13</ele><time>2011-08-31T08:58:04Z</time></trkpt><trkpt lat="52.003219" lon="-2.225484"><ele>50.61</ele><time>2011-08-31T08:58:08Z</time></trkpt><trkpt lat="52.003132" lon="-2.225408"><ele>51.57</ele><time>2011-08-31T08:58:17Z</time></trkpt><trkpt lat="52.003097" lon="-2.225386"><ele>52.05</ele><time>2011-08-31T08:58:21Z</time></trkpt><trkpt lat="52.003044" lon="-2.225295"><ele>52.05</ele><time>2011-08-31T08:58:30Z</time></trkpt><trkpt lat="52.003005" lon="-2.225214"><ele>52.05</ele><time>2011-08-31T08:58:37Z</time></trkpt><trkpt lat="52.002952" lon="-2.225151"><ele>52.05</ele><time>2011-08-31T08:58:44Z</time></trkpt><trkpt lat="52.002886" lon="-2.225081"><ele>53.01</ele><time>2011-08-31T08:58:51Z</time></trkpt><trkpt lat="52.002808" lon="-2.225021"><ele>54.45</ele><time>2011-08-31T08:58:59Z</time></trkpt><trkpt lat="52.002749" lon="-2.224968"><ele>54.93</ele><time>2011-08-31T08:59:06Z</time></trkpt><trkpt lat="52.002709" lon="-2.224928"><ele>55.41</ele><time>2011-08-31T08:59:11Z</time></trkpt><trkpt lat="52.002692" lon="-2.224912"><ele>55.89</ele><time>2011-08-31T08:59:13Z</time></trkpt><trkpt lat="52.002605" lon="-2.224849"><ele>56.86</ele><time>2011-08-31T08:59:22Z</time></trkpt><trkpt lat="52.002541" lon="-2.224787"><ele>56.86</ele><time>2011-08-31T08:59:30Z</time></trkpt><trkpt lat="52.002480" lon="-2.224720"><ele>56.37</ele><time>2011-08-31T08:59:38Z</time></trkpt><trkpt lat="52.002421" lon="-2.224646"><ele>56.37</ele><time>2011-08-31T08:59:46Z</time></trkpt><trkpt lat="52.002373" lon="-2.224591"><ele>56.86</ele><time>2011-08-31T08:59:54Z</time></trkpt><trkpt lat="52.002327" lon="-2.224534"><ele>56.86</ele><time>2011-08-31T09:00:01Z</time></trkpt><trkpt lat="52.002294" lon="-2.224442"><ele>56.37</ele><time>2011-08-31T09:00:09Z</time></trkpt><trkpt lat="52.002262" lon="-2.224324"><ele>57.34</ele><time>2011-08-31T09:00:17Z</time></trkpt><trkpt lat="52.002249" lon="-2.224273"><ele>57.34</ele><time>2011-08-31T09:00:23Z</time></trkpt><trkpt lat="52.002261" lon="-2.224303"><ele>56.86</ele><time>2011-08-31T09:00:31Z</time></trkpt><trkpt lat="52.002274" lon="-2.224305"><ele>55.41</ele><time>2011-08-31T09:00:39Z</time></trkpt><trkpt lat="52.002284" lon="-2.224265"><ele>54.45</ele><time>2011-08-31T09:00:44Z</time></trkpt><trkpt lat="52.002357" lon="-2.224122"><ele>53.49</ele><time>2011-08-31T09:00:56Z</time></trkpt><trkpt lat="52.002417" lon="-2.224025"><ele>53.97</ele><time>2011-08-31T09:01:03Z</time></trkpt><trkpt lat="52.002470" lon="-2.223917"><ele>52.53</ele><time>2011-08-31T09:01:11Z</time></trkpt><trkpt lat="52.002519" lon="-2.223806"><ele>52.53</ele><time>2011-08-31T09:01:18Z</time></trkpt><trkpt lat="52.002591" lon="-2.223666"><ele>52.05</ele><time>2011-08-31T09:01:28Z</time></trkpt><trkpt lat="52.002640" lon="-2.223524"><ele>51.57</ele><time>2011-08-31T09:01:37Z</time></trkpt><trkpt lat="52.002673" lon="-2.223410"><ele>51.57</ele><time>2011-08-31T09:01:44Z</time></trkpt><trkpt lat="52.002720" lon="-2.223246"><ele>50.13</ele><time>2011-08-31T09:01:54Z</time></trkpt><trkpt lat="52.002755" lon="-2.223090"><ele>49.16</ele><time>2011-08-31T09:02:03Z</time></trkpt><trkpt lat="52.002803" lon="-2.222960"><ele>48.68</ele><time>2011-08-31T09:02:11Z</time></trkpt><trkpt lat="52.002873" lon="-2.222818"><ele>48.20</ele><time>2011-08-31T09:02:21Z</time></trkpt><trkpt lat="52.002965" lon="-2.222634"><ele>48.68</ele><time>2011-08-31T09:02:34Z</time></trkpt><trkpt lat="52.003018" lon="-2.222526"><ele>48.20</ele><time>2011-08-31T09:02:42Z</time></trkpt><trkpt lat="52.003074" lon="-2.222411"><ele>47.72</ele><time>2011-08-31T09:02:51Z</time></trkpt><trkpt lat="52.003111" lon="-2.222333"><ele>46.76</ele><time>2011-08-31T09:02:59Z</time></trkpt><trkpt lat="52.003112" lon="-2.222328"><ele>46.28</ele><time>2011-08-31T09:03:21Z</time></trkpt><trkpt lat="52.003122" lon="-2.222317"><ele>45.80</ele><time>2011-08-31T09:03:33Z</time></trkpt><trkpt lat="52.003134" lon="-2.222300"><ele>45.32</ele><time>2011-08-31T09:03:42Z</time></trkpt><trkpt lat="52.003162" lon="-2.222269"><ele>44.84</ele><time>2011-08-31T09:03:47Z</time></trkpt><trkpt lat="52.003201" lon="-2.222162"><ele>45.32</ele><time>2011-08-31T09:03:54Z</time></trkpt><trkpt lat="52.003229" lon="-2.222032"><ele>45.80</ele><time>2011-08-31T09:04:02Z</time></trkpt><trkpt lat="52.003278" lon="-2.221929"><ele>45.80</ele><time>2011-08-31T09:04:12Z</time></trkpt><trkpt lat="52.003307" lon="-2.221864"><ele>45.80</ele><time>2011-08-31T09:04:19Z</time></trkpt><trkpt lat="52.003348" lon="-2.221730"><ele>45.80</ele><time>2011-08-31T09:04:28Z</time></trkpt><trkpt lat="52.003379" lon="-2.221619"><ele>44.84</ele><time>2011-08-31T09:04:36Z</time></trkpt><trkpt lat="52.003428" lon="-2.221474"><ele>44.36</ele><time>2011-08-31T09:04:46Z</time></trkpt><trkpt lat="52.003474" lon="-2.221349"><ele>45.32</ele><time>2011-08-31T09:04:55Z</time></trkpt><trkpt lat="52.003538" lon="-2.221211"><ele>46.28</ele><time>2011-08-31T09:05:05Z</time></trkpt><trkpt lat="52.003583" lon="-2.221072"><ele>46.28</ele><time>2011-08-31T09:05:15Z</time></trkpt><trkpt lat="52.003642" lon="-2.220955"><ele>48.20</ele><time>2011-08-31T09:05:25Z</time></trkpt><trkpt lat="52.003688" lon="-2.220845"><ele>49.16</ele><time>2011-08-31T09:05:34Z</time></trkpt><trkpt lat="52.003735" lon="-2.220747"><ele>48.68</ele><time>2011-08-31T09:05:42Z</time></trkpt><trkpt lat="52.003784" lon="-2.220634"><ele>49.16</ele><time>2011-08-31T09:05:52Z</time></trkpt><trkpt lat="52.003809" lon="-2.220589"><ele>49.65</ele><time>2011-08-31T09:05:56Z</time></trkpt><trkpt lat="52.003851" lon="-2.220475"><ele>50.61</ele><time>2011-08-31T09:06:05Z</time></trkpt><trkpt lat="52.003901" lon="-2.220348"><ele>50.13</ele><time>2011-08-31T09:06:16Z</time></trkpt><trkpt lat="52.003921" lon="-2.220243"><ele>50.61</ele><time>2011-08-31T09:06:25Z</time></trkpt><trkpt lat="52.003944" lon="-2.220205"><ele>51.09</ele><time>2011-08-31T09:06:35Z</time></trkpt><trkpt lat="52.003950" lon="-2.220198"><ele>50.13</ele><time>2011-08-31T09:06:50Z</time></trkpt><trkpt lat="52.003948" lon="-2.220199"><ele>50.61</ele><time>2011-08-31T09:07:29Z</time></trkpt><trkpt lat="52.003915" lon="-2.220170"><ele>49.65</ele><time>2011-08-31T09:07:47Z</time></trkpt><trkpt lat="52.003901" lon="-2.220148"><ele>50.13</ele><time>2011-08-31T09:07:54Z</time></trkpt><trkpt lat="52.003913" lon="-2.220082"><ele>50.13</ele><time>2011-08-31T09:08:46Z</time></trkpt><trkpt lat="52.003946" lon="-2.219968"><ele>51.09</ele><time>2011-08-31T09:08:53Z</time></trkpt><trkpt lat="52.003985" lon="-2.219859"><ele>51.09</ele><time>2011-08-31T09:09:01Z</time></trkpt><trkpt lat="52.004017" lon="-2.219759"><ele>51.57</ele><time>2011-08-31T09:09:08Z</time></trkpt><trkpt lat="52.004072" lon="-2.219648"><ele>51.57</ele><time>2011-08-31T09:09:17Z</time></trkpt><trkpt lat="52.004092" lon="-2.219616"><ele>51.57</ele><time>2011-08-31T09:09:20Z</time></trkpt><trkpt lat="52.004129" lon="-2.219531"><ele>50.61</ele><time>2011-08-31T09:09:27Z</time></trkpt><trkpt lat="52.004199" lon="-2.219417"><ele>52.05</ele><time>2011-08-31T09:09:37Z</time></trkpt><trkpt lat="52.004218" lon="-2.219375"><ele>52.05</ele><time>2011-08-31T09:09:40Z</time></trkpt><trkpt lat="52.004256" lon="-2.219255"><ele>51.57</ele><time>2011-08-31T09:09:49Z</time></trkpt><trkpt lat="52.004302" lon="-2.219111"><ele>51.57</ele><time>2011-08-31T09:09:59Z</time></trkpt><trkpt lat="52.004345" lon="-2.218956"><ele>51.09</ele><time>2011-08-31T09:10:09Z</time></trkpt><trkpt lat="52.004387" lon="-2.218793"><ele>51.09</ele><time>2011-08-31T09:10:19Z</time></trkpt><trkpt lat="52.004432" lon="-2.218634"><ele>51.57</ele><time>2011-08-31T09:10:29Z</time></trkpt><trkpt lat="52.004478" lon="-2.218488"><ele>51.57</ele><time>2011-08-31T09:10:39Z</time></trkpt><trkpt lat="52.004507" lon="-2.218352"><ele>51.57</ele><time>2011-08-31T09:10:49Z</time></trkpt><trkpt lat="52.004510" lon="-2.218364"><ele>50.13</ele><time>2011-08-31T09:11:04Z</time></trkpt><trkpt lat="52.004521" lon="-2.218344"><ele>47.72</ele><time>2011-08-31T09:11:17Z</time></trkpt><trkpt lat="52.004524" lon="-2.218338"><ele>47.72</ele><time>2011-08-31T09:11:43Z</time></trkpt><trkpt lat="52.004526" lon="-2.218342"><ele>47.72</ele><time>2011-08-31T09:11:57Z</time></trkpt><trkpt lat="52.004541" lon="-2.218327"><ele>47.72</ele><time>2011-08-31T09:12:08Z</time></trkpt><trkpt lat="52.004551" lon="-2.218313"><ele>47.72</ele><time>2011-08-31T09:12:15Z</time></trkpt><trkpt lat="52.004605" lon="-2.218266"><ele>47.72</ele><time>2011-08-31T09:12:23Z</time></trkpt><trkpt lat="52.004624" lon="-2.218183"><ele>48.20</ele><time>2011-08-31T09:12:30Z</time></trkpt><trkpt lat="52.004632" lon="-2.218121"><ele>50.13</ele><time>2011-08-31T09:12:46Z</time></trkpt><trkpt lat="52.004530" lon="-2.217995"><ele>50.61</ele><time>2011-08-31T09:12:58Z</time></trkpt><trkpt lat="52.004523" lon="-2.217989"><ele>50.61</ele><time>2011-08-31T09:12:59Z</time></trkpt><trkpt lat="52.004455" lon="-2.217888"><ele>52.53</ele><time>2011-08-31T09:13:09Z</time></trkpt><trkpt lat="52.004371" lon="-2.217817"><ele>53.01</ele><time>2011-08-31T09:13:17Z</time></trkpt><trkpt lat="52.004262" lon="-2.217750"><ele>52.53</ele><time>2011-08-31T09:13:28Z</time></trkpt><trkpt lat="52.004120" lon="-2.217642"><ele>52.05</ele><time>2011-08-31T09:13:43Z</time></trkpt><trkpt lat="52.004048" lon="-2.217584"><ele>52.53</ele><time>2011-08-31T09:13:51Z</time></trkpt><trkpt lat="52.003931" lon="-2.217519"><ele>51.57</ele><time>2011-08-31T09:14:04Z</time></trkpt><trkpt lat="52.003828" lon="-2.217451"><ele>53.01</ele><time>2011-08-31T09:14:15Z</time></trkpt><trkpt lat="52.003724" lon="-2.217353"><ele>53.97</ele><time>2011-08-31T09:14:28Z</time></trkpt><trkpt lat="52.003593" lon="-2.217286"><ele>53.49</ele><time>2011-08-31T09:14:42Z</time></trkpt><trkpt lat="52.003459" lon="-2.217169"><ele>53.01</ele><time>2011-08-31T09:14:57Z</time></trkpt><trkpt lat="52.003378" lon="-2.217122"><ele>53.49</ele><time>2011-08-31T09:15:06Z</time></trkpt><trkpt lat="52.003290" lon="-2.217036"><ele>53.01</ele><time>2011-08-31T09:15:16Z</time></trkpt><trkpt lat="52.003215" lon="-2.216913"><ele>52.53</ele><time>2011-08-31T09:15:27Z</time></trkpt><trkpt lat="52.003150" lon="-2.216819"><ele>52.53</ele><time>2011-08-31T09:15:36Z</time></trkpt><trkpt lat="52.003094" lon="-2.216722"><ele>52.05</ele><time>2011-08-31T09:15:44Z</time></trkpt><trkpt lat="52.003027" lon="-2.216593"><ele>52.53</ele><time>2011-08-31T09:15:55Z</time></trkpt><trkpt lat="52.002972" lon="-2.216459"><ele>51.57</ele><time>2011-08-31T09:16:05Z</time></trkpt><trkpt lat="52.002904" lon="-2.216333"><ele>51.09</ele><time>2011-08-31T09:16:15Z</time></trkpt><trkpt lat="52.002842" lon="-2.216186"><ele>50.61</ele><time>2011-08-31T09:16:25Z</time></trkpt><trkpt lat="52.002797" lon="-2.216083"><ele>49.65</ele><time>2011-08-31T09:16:32Z</time></trkpt><trkpt lat="52.002749" lon="-2.215960"><ele>49.16</ele><time>2011-08-31T09:16:40Z</time></trkpt><trkpt lat="52.002698" lon="-2.215839"><ele>50.13</ele><time>2011-08-31T09:16:48Z</time></trkpt><trkpt lat="52.002634" lon="-2.215666"><ele>51.09</ele><time>2011-08-31T09:16:59Z</time></trkpt><trkpt lat="52.002581" lon="-2.215544"><ele>52.53</ele><time>2011-08-31T09:17:08Z</time></trkpt><trkpt lat="52.002522" lon="-2.215399"><ele>52.53</ele><time>2011-08-31T09:17:18Z</time></trkpt><trkpt lat="52.002483" lon="-2.215276"><ele>53.01</ele><time>2011-08-31T09:17:27Z</time></trkpt><trkpt lat="52.002415" lon="-2.215153"><ele>53.01</ele><time>2011-08-31T09:17:37Z</time></trkpt><trkpt lat="52.002354" lon="-2.215038"><ele>53.49</ele><time>2011-08-31T09:17:46Z</time></trkpt><trkpt lat="52.002313" lon="-2.214935"><ele>53.49</ele><time>2011-08-31T09:17:53Z</time></trkpt><trkpt lat="52.002243" lon="-2.214794"><ele>53.01</ele><time>2011-08-31T09:18:03Z</time></trkpt><trkpt lat="52.002191" lon="-2.214680"><ele>53.97</ele><time>2011-08-31T09:18:12Z</time></trkpt><trkpt lat="52.002151" lon="-2.214544"><ele>55.41</ele><time>2011-08-31T09:18:21Z</time></trkpt><trkpt lat="52.002088" lon="-2.214430"><ele>55.89</ele><time>2011-08-31T09:18:30Z</time></trkpt><trkpt lat="52.002034" lon="-2.214314"><ele>54.93</ele><time>2011-08-31T09:18:37Z</time></trkpt><trkpt lat="52.001986" lon="-2.214215"><ele>53.97</ele><time>2011-08-31T09:18:45Z</time></trkpt><trkpt lat="52.001938" lon="-2.214120"><ele>54.45</ele><time>2011-08-31T09:18:53Z</time></trkpt><trkpt lat="52.001875" lon="-2.213976"><ele>53.97</ele><time>2011-08-31T09:19:03Z</time></trkpt><trkpt lat="52.001811" lon="-2.213824"><ele>54.93</ele><time>2011-08-31T09:19:13Z</time></trkpt><trkpt lat="52.001754" lon="-2.213693"><ele>54.45</ele><time>2011-08-31T09:19:22Z</time></trkpt><trkpt lat="52.001685" lon="-2.213568"><ele>54.45</ele><time>2011-08-31T09:19:32Z</time></trkpt><trkpt lat="52.001635" lon="-2.213449"><ele>54.45</ele><time>2011-08-31T09:19:40Z</time></trkpt><trkpt lat="52.001580" lon="-2.213315"><ele>54.45</ele><time>2011-08-31T09:19:49Z</time></trkpt><trkpt lat="52.001514" lon="-2.213178"><ele>55.41</ele><time>2011-08-31T09:19:59Z</time></trkpt><trkpt lat="52.001466" lon="-2.213071"><ele>56.86</ele><time>2011-08-31T09:20:08Z</time></trkpt><trkpt lat="52.001416" lon="-2.212984"><ele>58.78</ele><time>2011-08-31T09:20:16Z</time></trkpt><trkpt lat="52.001399" lon="-2.212894"><ele>59.26</ele><time>2011-08-31T09:20:23Z</time></trkpt><trkpt lat="52.001375" lon="-2.212807"><ele>58.78</ele><time>2011-08-31T09:20:30Z</time></trkpt><trkpt lat="52.001352" lon="-2.212702"><ele>56.86</ele><time>2011-08-31T09:20:39Z</time></trkpt><trkpt lat="52.001358" lon="-2.212642"><ele>55.41</ele><time>2011-08-31T09:20:46Z</time></trkpt><trkpt lat="52.001369" lon="-2.212638"><ele>55.89</ele><time>2011-08-31T09:20:55Z</time></trkpt><trkpt lat="52.001367" lon="-2.212635"><ele>55.89</ele><time>2011-08-31T09:21:04Z</time></trkpt><trkpt lat="52.001352" lon="-2.212592"><ele>56.37</ele><time>2011-08-31T09:21:10Z</time></trkpt><trkpt lat="52.001349" lon="-2.212562"><ele>56.37</ele><time>2011-08-31T09:21:12Z</time></trkpt><trkpt lat="52.001339" lon="-2.212351"><ele>54.93</ele><time>2011-08-31T09:21:22Z</time></trkpt><trkpt lat="52.001339" lon="-2.212167"><ele>53.01</ele><time>2011-08-31T09:21:32Z</time></trkpt><trkpt lat="52.001337" lon="-2.212057"><ele>53.49</ele><time>2011-08-31T09:21:39Z</time></trkpt><trkpt lat="52.001325" lon="-2.211859"><ele>53.49</ele><time>2011-08-31T09:21:51Z</time></trkpt><trkpt lat="52.001321" lon="-2.211716"><ele>54.45</ele><time>2011-08-31T09:21:59Z</time></trkpt><trkpt lat="52.001324" lon="-2.211570"><ele>55.89</ele><time>2011-08-31T09:22:08Z</time></trkpt><trkpt lat="52.001328" lon="-2.211399"><ele>56.37</ele><time>2011-08-31T09:22:18Z</time></trkpt><trkpt lat="52.001331" lon="-2.211257"><ele>55.41</ele><time>2011-08-31T09:22:26Z</time></trkpt><trkpt lat="52.001321" lon="-2.211063"><ele>55.41</ele><time>2011-08-31T09:22:37Z</time></trkpt><trkpt lat="52.001308" lon="-2.210893"><ele>54.93</ele><time>2011-08-31T09:22:48Z</time></trkpt><trkpt lat="52.001290" lon="-2.210735"><ele>54.45</ele><time>2011-08-31T09:22:58Z</time></trkpt><trkpt lat="52.001301" lon="-2.210627"><ele>54.93</ele><time>2011-08-31T09:23:04Z</time></trkpt><trkpt lat="52.001306" lon="-2.210452"><ele>52.05</ele><time>2011-08-31T09:23:14Z</time></trkpt><trkpt lat="52.001286" lon="-2.210301"><ele>51.57</ele><time>2011-08-31T09:23:23Z</time></trkpt><trkpt lat="52.001279" lon="-2.210238"><ele>52.05</ele><time>2011-08-31T09:23:27Z</time></trkpt><trkpt lat="52.001269" lon="-2.210089"><ele>52.05</ele><time>2011-08-31T09:23:36Z</time></trkpt><trkpt lat="52.001280" lon="-2.210001"><ele>52.53</ele><time>2011-08-31T09:23:44Z</time></trkpt><trkpt lat="52.001273" lon="-2.209934"><ele>51.57</ele><time>2011-08-31T09:23:50Z</time></trkpt><trkpt lat="52.001269" lon="-2.209881"><ele>51.09</ele><time>2011-08-31T09:23:58Z</time></trkpt><trkpt lat="52.001267" lon="-2.209892"><ele>51.09</ele><time>2011-08-31T09:24:13Z</time></trkpt><trkpt lat="52.001265" lon="-2.209772"><ele>50.61</ele><time>2011-08-31T09:24:22Z</time></trkpt><trkpt lat="52.001259" lon="-2.209637"><ele>49.65</ele><time>2011-08-31T09:24:30Z</time></trkpt><trkpt lat="52.001262" lon="-2.209443"><ele>49.16</ele><time>2011-08-31T09:24:41Z</time></trkpt><trkpt lat="52.001266" lon="-2.209269"><ele>48.68</ele><time>2011-08-31T09:24:51Z</time></trkpt><trkpt lat="52.001274" lon="-2.209090"><ele>48.68</ele><time>2011-08-31T09:25:01Z</time></trkpt><trkpt lat="52.001253" lon="-2.208829"><ele>48.68</ele><time>2011-08-31T09:25:16Z</time></trkpt><trkpt lat="52.001232" lon="-2.208681"><ele>48.20</ele><time>2011-08-31T09:25:26Z</time></trkpt><trkpt lat="52.001231" lon="-2.208602"><ele>48.20</ele><time>2011-08-31T09:25:36Z</time></trkpt><trkpt lat="52.001221" lon="-2.208577"><ele>47.72</ele><time>2011-08-31T09:25:43Z</time></trkpt><trkpt lat="52.001213" lon="-2.208586"><ele>46.76</ele><time>2011-08-31T09:26:07Z</time></trkpt><trkpt lat="52.001206" lon="-2.208568"><ele>47.24</ele><time>2011-08-31T09:26:31Z</time></trkpt><trkpt lat="52.001182" lon="-2.208419"><ele>48.68</ele><time>2011-08-31T09:26:39Z</time></trkpt><trkpt lat="52.001166" lon="-2.208236"><ele>48.68</ele><time>2011-08-31T09:26:49Z</time></trkpt><trkpt lat="52.001129" lon="-2.208051"><ele>48.68</ele><time>2011-08-31T09:26:59Z</time></trkpt><trkpt lat="52.001092" lon="-2.207867"><ele>49.16</ele><time>2011-08-31T09:27:10Z</time></trkpt><trkpt lat="52.001081" lon="-2.207697"><ele>48.68</ele><time>2011-08-31T09:27:20Z</time></trkpt><trkpt lat="52.001078" lon="-2.207591"><ele>48.68</ele><time>2011-08-31T09:27:26Z</time></trkpt><trkpt lat="52.001074" lon="-2.207564"><ele>48.68</ele><time>2011-08-31T09:27:28Z</time></trkpt><trkpt lat="52.001063" lon="-2.207449"><ele>48.20</ele><time>2011-08-31T09:27:35Z</time></trkpt><trkpt lat="52.001056" lon="-2.207295"><ele>48.20</ele><time>2011-08-31T09:27:44Z</time></trkpt><trkpt lat="52.001021" lon="-2.207202"><ele>48.20</ele><time>2011-08-31T09:27:53Z</time></trkpt><trkpt lat="52.001030" lon="-2.207203"><ele>48.20</ele><time>2011-08-31T09:28:01Z</time></trkpt><trkpt lat="52.001079" lon="-2.207187"><ele>48.68</ele><time>2011-08-31T09:28:10Z</time></trkpt><trkpt lat="52.001057" lon="-2.207183"><ele>48.20</ele><time>2011-08-31T09:28:20Z</time></trkpt><trkpt lat="52.001018" lon="-2.207172"><ele>47.24</ele><time>2011-08-31T09:28:26Z</time></trkpt><trkpt lat="52.001024" lon="-2.207174"><ele>46.76</ele><time>2011-08-31T09:28:43Z</time></trkpt><trkpt lat="52.001030" lon="-2.207174"><ele>46.76</ele><time>2011-08-31T09:28:47Z</time></trkpt><trkpt lat="52.001089" lon="-2.207162"><ele>46.28</ele><time>2011-08-31T09:28:56Z</time></trkpt><trkpt lat="52.001085" lon="-2.207156"><ele>46.28</ele><time>2011-08-31T09:28:59Z</time></trkpt><trkpt lat="52.001032" lon="-2.207000"><ele>46.28</ele><time>2011-08-31T09:29:10Z</time></trkpt><trkpt lat="52.001041" lon="-2.206883"><ele>46.28</ele><time>2011-08-31T09:29:17Z</time></trkpt><trkpt lat="52.001030" lon="-2.206801"><ele>45.32</ele><time>2011-08-31T09:29:27Z</time></trkpt><trkpt lat="52.001018" lon="-2.206802"><ele>45.80</ele><time>2011-08-31T09:29:50Z</time></trkpt><trkpt lat="52.001021" lon="-2.206752"><ele>45.80</ele><time>2011-08-31T09:30:00Z</time></trkpt><trkpt lat="52.001031" lon="-2.206678"><ele>46.76</ele><time>2011-08-31T09:30:06Z</time></trkpt><trkpt lat="52.001050" lon="-2.206574"><ele>46.76</ele><time>2011-08-31T09:30:13Z</time></trkpt><trkpt lat="52.001084" lon="-2.206454"><ele>46.76</ele><time>2011-08-31T09:30:21Z</time></trkpt><trkpt lat="52.001106" lon="-2.206326"><ele>46.28</ele><time>2011-08-31T09:30:29Z</time></trkpt><trkpt lat="52.001111" lon="-2.206294"><ele>46.28</ele><time>2011-08-31T09:30:31Z</time></trkpt><trkpt lat="52.001125" lon="-2.206174"><ele>45.80</ele><time>2011-08-31T09:30:39Z</time></trkpt><trkpt lat="52.001133" lon="-2.206003"><ele>45.80</ele><time>2011-08-31T09:30:49Z</time></trkpt><trkpt lat="52.001154" lon="-2.205834"><ele>45.32</ele><time>2011-08-31T09:30:59Z</time></trkpt><trkpt lat="52.001179" lon="-2.205673"><ele>45.32</ele><time>2011-08-31T09:31:09Z</time></trkpt><trkpt lat="52.001202" lon="-2.205494"><ele>45.80</ele><time>2011-08-31T09:31:19Z</time></trkpt><trkpt lat="52.001213" lon="-2.205326"><ele>44.84</ele><time>2011-08-31T09:31:29Z</time></trkpt><trkpt lat="52.001240" lon="-2.205143"><ele>44.84</ele><time>2011-08-31T09:31:40Z</time></trkpt><trkpt lat="52.001262" lon="-2.204998"><ele>45.32</ele><time>2011-08-31T09:31:50Z</time></trkpt><trkpt lat="52.001267" lon="-2.204917"><ele>45.32</ele><time>2011-08-31T09:31:57Z</time></trkpt><trkpt lat="52.001264" lon="-2.204871"><ele>45.32</ele><time>2011-08-31T09:32:06Z</time></trkpt><trkpt lat="52.001270" lon="-2.204854"><ele>45.32</ele><time>2011-08-31T09:32:38Z</time></trkpt><trkpt lat="52.001241" lon="-2.204760"><ele>45.32</ele><time>2011-08-31T09:32:49Z</time></trkpt><trkpt lat="52.001256" lon="-2.204613"><ele>44.84</ele><time>2011-08-31T09:32:57Z</time></trkpt><trkpt lat="52.001254" lon="-2.204528"><ele>45.80</ele><time>2011-08-31T09:33:04Z</time></trkpt><trkpt lat="52.001255" lon="-2.204453"><ele>47.24</ele><time>2011-08-31T09:33:12Z</time></trkpt><trkpt lat="52.001271" lon="-2.204348"><ele>48.20</ele><time>2011-08-31T09:33:23Z</time></trkpt><trkpt lat="52.001298" lon="-2.204237"><ele>49.16</ele><time>2011-08-31T09:33:31Z</time></trkpt><trkpt lat="52.001320" lon="-2.204139"><ele>49.65</ele><time>2011-08-31T09:33:41Z</time></trkpt><trkpt lat="52.001335" lon="-2.204034"><ele>49.16</ele><time>2011-08-31T09:33:50Z</time></trkpt><trkpt lat="52.001337" lon="-2.203927"><ele>49.65</ele><time>2011-08-31T09:33:58Z</time></trkpt><trkpt lat="52.001334" lon="-2.203838"><ele>49.65</ele><time>2011-08-31T09:34:06Z</time></trkpt><trkpt lat="52.001323" lon="-2.203755"><ele>50.13</ele><time>2011-08-31T09:34:13Z</time></trkpt><trkpt lat="52.001330" lon="-2.203679"><ele>50.61</ele><time>2011-08-31T09:34:20Z</time></trkpt><trkpt lat="52.001340" lon="-2.203605"><ele>52.53</ele><time>2011-08-31T09:34:32Z</time></trkpt><trkpt lat="52.001353" lon="-2.203519"><ele>54.45</ele><time>2011-08-31T09:34:44Z</time></trkpt><trkpt lat="52.001379" lon="-2.203409"><ele>56.86</ele><time>2011-08-31T09:34:51Z</time></trkpt><trkpt lat="52.001392" lon="-2.203291"><ele>57.82</ele><time>2011-08-31T09:34:59Z</time></trkpt><trkpt lat="52.001404" lon="-2.203282"><ele>56.37</ele><time>2011-08-31T09:35:08Z</time></trkpt><trkpt lat="52.001393" lon="-2.203183"><ele>56.37</ele><time>2011-08-31T09:35:18Z</time></trkpt><trkpt lat="52.001389" lon="-2.203130"><ele>56.37</ele><time>2011-08-31T09:35:25Z</time></trkpt><trkpt lat="52.001389" lon="-2.203048"><ele>55.41</ele><time>2011-08-31T09:35:36Z</time></trkpt><trkpt lat="52.001377" lon="-2.202952"><ele>55.41</ele><time>2011-08-31T09:35:47Z</time></trkpt><trkpt lat="52.001402" lon="-2.202809"><ele>55.89</ele><time>2011-08-31T09:35:57Z</time></trkpt><trkpt lat="52.001428" lon="-2.202759"><ele>56.86</ele><time>2011-08-31T09:36:07Z</time></trkpt><trkpt lat="52.001437" lon="-2.202668"><ele>55.89</ele><time>2011-08-31T09:36:18Z</time></trkpt><trkpt lat="52.001438" lon="-2.202517"><ele>57.34</ele><time>2011-08-31T09:36:30Z</time></trkpt><trkpt lat="52.001408" lon="-2.202431"><ele>58.78</ele><time>2011-08-31T09:36:37Z</time></trkpt><trkpt lat="52.001408" lon="-2.202270"><ele>61.18</ele><time>2011-08-31T09:36:49Z</time></trkpt><trkpt lat="52.001454" lon="-2.202123"><ele>65.03</ele><time>2011-08-31T09:36:58Z</time></trkpt><trkpt lat="52.001465" lon="-2.202057"><ele>68.39</ele><time>2011-08-31T09:37:18Z</time></trkpt><trkpt lat="52.001455" lon="-2.201981"><ele>65.99</ele><time>2011-08-31T09:37:34Z</time></trkpt><trkpt lat="52.001415" lon="-2.201886"><ele>66.47</ele><time>2011-08-31T09:37:44Z</time></trkpt><trkpt lat="52.001392" lon="-2.201759"><ele>64.07</ele><time>2011-08-31T09:37:53Z</time></trkpt><trkpt lat="52.001356" lon="-2.201678"><ele>63.58</ele><time>2011-08-31T09:38:01Z</time></trkpt><trkpt lat="52.001387" lon="-2.201566"><ele>63.58</ele><time>2011-08-31T09:38:10Z</time></trkpt><trkpt lat="52.001441" lon="-2.201475"><ele>63.10</ele><time>2011-08-31T09:38:19Z</time></trkpt><trkpt lat="52.001444" lon="-2.201377"><ele>63.58</ele><time>2011-08-31T09:38:29Z</time></trkpt><trkpt lat="52.001449" lon="-2.201290"><ele>65.03</ele><time>2011-08-31T09:38:34Z</time></trkpt><trkpt lat="52.001439" lon="-2.201153"><ele>63.10</ele><time>2011-08-31T09:38:42Z</time></trkpt><trkpt lat="52.001441" lon="-2.201023"><ele>61.66</ele><time>2011-08-31T09:38:50Z</time></trkpt><trkpt lat="52.001442" lon="-2.200989"><ele>61.66</ele><time>2011-08-31T09:38:52Z</time></trkpt><trkpt lat="52.001427" lon="-2.200861"><ele>60.70</ele><time>2011-08-31T09:39:00Z</time></trkpt><trkpt lat="52.001424" lon="-2.200744"><ele>60.22</ele><time>2011-08-31T09:39:09Z</time></trkpt><trkpt lat="52.001439" lon="-2.200744"><ele>60.22</ele><time>2011-08-31T09:39:13Z</time></trkpt><trkpt lat="52.001470" lon="-2.200717"><ele>60.22</ele><time>2011-08-31T09:39:21Z</time></trkpt><trkpt lat="52.001450" lon="-2.200709"><ele>60.22</ele><time>2011-08-31T09:39:34Z</time></trkpt><trkpt lat="52.001431" lon="-2.200708"><ele>60.22</ele><time>2011-08-31T09:39:50Z</time></trkpt><trkpt lat="52.001359" lon="-2.200736"><ele>61.18</ele><time>2011-08-31T09:40:01Z</time></trkpt><trkpt lat="52.001355" lon="-2.200791"><ele>61.66</ele><time>2011-08-31T09:40:57Z</time></trkpt><trkpt lat="52.001389" lon="-2.200710"><ele>62.14</ele><time>2011-08-31T09:41:14Z</time></trkpt><trkpt lat="52.001459" lon="-2.200625"><ele>61.66</ele><time>2011-08-31T09:41:23Z</time></trkpt><trkpt lat="52.001526" lon="-2.200528"><ele>62.62</ele><time>2011-08-31T09:41:34Z</time></trkpt><trkpt lat="52.001551" lon="-2.200486"><ele>63.10</ele><time>2011-08-31T09:41:37Z</time></trkpt><trkpt lat="52.001641" lon="-2.200463"><ele>62.14</ele><time>2011-08-31T09:41:46Z</time></trkpt><trkpt lat="52.001742" lon="-2.200452"><ele>62.62</ele><time>2011-08-31T09:41:56Z</time></trkpt><trkpt lat="52.001811" lon="-2.200425"><ele>63.10</ele><time>2011-08-31T09:42:04Z</time></trkpt><trkpt lat="52.001875" lon="-2.200428"><ele>64.07</ele><time>2011-08-31T09:42:11Z</time></trkpt><trkpt lat="52.001937" lon="-2.200427"><ele>63.10</ele><time>2011-08-31T09:42:20Z</time></trkpt><trkpt lat="52.002021" lon="-2.200411"><ele>61.18</ele><time>2011-08-31T09:42:28Z</time></trkpt><trkpt lat="52.002109" lon="-2.200375"><ele>58.78</ele><time>2011-08-31T09:42:38Z</time></trkpt><trkpt lat="52.002167" lon="-2.200352"><ele>58.30</ele><time>2011-08-31T09:42:46Z</time></trkpt><trkpt lat="52.002243" lon="-2.200342"><ele>57.82</ele><time>2011-08-31T09:42:56Z</time></trkpt><trkpt lat="52.002312" lon="-2.200343"><ele>56.86</ele><time>2011-08-31T09:43:04Z</time></trkpt><trkpt lat="52.002378" lon="-2.200365"><ele>57.34</ele><time>2011-08-31T09:43:11Z</time></trkpt><trkpt lat="52.002464" lon="-2.200374"><ele>59.26</ele><time>2011-08-31T09:43:21Z</time></trkpt><trkpt lat="52.002542" lon="-2.200377"><ele>56.86</ele><time>2011-08-31T09:43:30Z</time></trkpt><trkpt lat="52.002541" lon="-2.200396"><ele>55.41</ele><time>2011-08-31T09:43:43Z</time></trkpt><trkpt lat="52.002565" lon="-2.200409"><ele>55.89</ele><time>2011-08-31T09:44:11Z</time></trkpt><trkpt lat="52.002592" lon="-2.200414"><ele>54.45</ele><time>2011-08-31T09:44:25Z</time></trkpt><trkpt lat="52.002629" lon="-2.200446"><ele>56.37</ele><time>2011-08-31T09:44:35Z</time></trkpt><trkpt lat="52.002686" lon="-2.200420"><ele>56.37</ele><time>2011-08-31T09:44:43Z</time></trkpt><trkpt lat="52.002764" lon="-2.200421"><ele>56.37</ele><time>2011-08-31T09:44:51Z</time></trkpt><trkpt lat="52.002845" lon="-2.200411"><ele>56.37</ele><time>2011-08-31T09:44:59Z</time></trkpt><trkpt lat="52.002929" lon="-2.200403"><ele>56.37</ele><time>2011-08-31T09:45:08Z</time></trkpt><trkpt lat="52.003019" lon="-2.200406"><ele>56.37</ele><time>2011-08-31T09:45:17Z</time></trkpt><trkpt lat="52.003121" lon="-2.200392"><ele>56.37</ele><time>2011-08-31T09:45:26Z</time></trkpt><trkpt lat="52.003234" lon="-2.200353"><ele>56.37</ele><time>2011-08-31T09:45:36Z</time></trkpt><trkpt lat="52.003343" lon="-2.200288"><ele>55.41</ele><time>2011-08-31T09:45:47Z</time></trkpt><trkpt lat="52.003452" lon="-2.200204"><ele>54.45</ele><time>2011-08-31T09:45:58Z</time></trkpt><trkpt lat="52.003558" lon="-2.200131"><ele>53.49</ele><time>2011-08-31T09:46:09Z</time></trkpt><trkpt lat="52.003644" lon="-2.200060"><ele>53.01</ele><time>2011-08-31T09:46:19Z</time></trkpt><trkpt lat="52.003725" lon="-2.200041"><ele>53.01</ele><time>2011-08-31T09:46:28Z</time></trkpt><trkpt lat="52.003798" lon="-2.200079"><ele>53.01</ele><time>2011-08-31T09:46:37Z</time></trkpt><trkpt lat="52.003833" lon="-2.200147"><ele>53.49</ele><time>2011-08-31T09:46:45Z</time></trkpt><trkpt lat="52.003871" lon="-2.200193"><ele>53.49</ele><time>2011-08-31T09:46:52Z</time></trkpt><trkpt lat="52.003926" lon="-2.200310"><ele>53.49</ele><time>2011-08-31T09:47:02Z</time></trkpt><trkpt lat="52.003964" lon="-2.200405"><ele>52.53</ele><time>2011-08-31T09:47:11Z</time></trkpt><trkpt lat="52.003987" lon="-2.200456"><ele>53.01</ele><time>2011-08-31T09:47:17Z</time></trkpt><trkpt lat="52.004053" lon="-2.200601"><ele>53.97</ele><time>2011-08-31T09:47:28Z</time></trkpt><trkpt lat="52.004103" lon="-2.200703"><ele>54.93</ele><time>2011-08-31T09:47:37Z</time></trkpt><trkpt lat="52.004108" lon="-2.200714"><ele>55.41</ele><time>2011-08-31T09:47:38Z</time></trkpt><trkpt lat="52.004146" lon="-2.200701"><ele>55.41</ele><time>2011-08-31T09:47:46Z</time></trkpt><trkpt lat="52.004148" lon="-2.200692"><ele>55.41</ele><time>2011-08-31T09:47:52Z</time></trkpt><trkpt lat="52.004128" lon="-2.200749"><ele>53.97</ele><time>2011-08-31T09:47:58Z</time></trkpt><trkpt lat="52.004175" lon="-2.200936"><ele>54.93</ele><time>2011-08-31T09:48:09Z</time></trkpt><trkpt lat="52.004202" lon="-2.200997"><ele>55.41</ele><time>2011-08-31T09:48:17Z</time></trkpt><trkpt lat="52.004220" lon="-2.200991"><ele>54.45</ele><time>2011-08-31T09:48:43Z</time></trkpt><trkpt lat="52.004258" lon="-2.201001"><ele>53.97</ele><time>2011-08-31T09:48:49Z</time></trkpt><trkpt lat="52.004267" lon="-2.200974"><ele>53.97</ele><time>2011-08-31T09:48:53Z</time></trkpt><trkpt lat="52.004320" lon="-2.200869"><ele>54.93</ele><time>2011-08-31T09:49:04Z</time></trkpt><trkpt lat="52.004398" lon="-2.200774"><ele>54.93</ele><time>2011-08-31T09:49:14Z</time></trkpt><trkpt lat="52.004476" lon="-2.200607"><ele>53.01</ele><time>2011-08-31T09:49:25Z</time></trkpt><trkpt lat="52.004497" lon="-2.200561"><ele>53.01</ele><time>2011-08-31T09:49:28Z</time></trkpt><trkpt lat="52.004595" lon="-2.200415"><ele>53.97</ele><time>2011-08-31T09:49:38Z</time></trkpt><trkpt lat="52.004697" lon="-2.200273"><ele>55.41</ele><time>2011-08-31T09:49:48Z</time></trkpt><trkpt lat="52.004805" lon="-2.200060"><ele>57.34</ele><time>2011-08-31T09:50:01Z</time></trkpt><trkpt lat="52.004858" lon="-2.199810"><ele>57.34</ele><time>2011-08-31T09:50:13Z</time></trkpt><trkpt lat="52.004928" lon="-2.199641"><ele>56.37</ele><time>2011-08-31T09:50:24Z</time></trkpt><trkpt lat="52.004994" lon="-2.199469"><ele>55.41</ele><time>2011-08-31T09:50:34Z</time></trkpt><trkpt lat="52.005084" lon="-2.199297"><ele>55.41</ele><time>2011-08-31T09:50:45Z</time></trkpt><trkpt lat="52.005171" lon="-2.199114"><ele>55.41</ele><time>2011-08-31T09:50:57Z</time></trkpt><trkpt lat="52.005217" lon="-2.198998"><ele>55.41</ele><time>2011-08-31T09:51:04Z</time></trkpt><trkpt lat="52.005267" lon="-2.198954"><ele>55.89</ele><time>2011-08-31T09:51:10Z</time></trkpt><trkpt lat="52.005278" lon="-2.198960"><ele>55.89</ele><time>2011-08-31T09:51:11Z</time></trkpt><trkpt lat="52.005344" lon="-2.199049"><ele>55.89</ele><time>2011-08-31T09:51:19Z</time></trkpt><trkpt lat="52.005358" lon="-2.199082"><ele>56.86</ele><time>2011-08-31T09:51:27Z</time></trkpt><trkpt lat="52.005345" lon="-2.199079"><ele>57.82</ele><time>2011-08-31T09:51:39Z</time></trkpt><trkpt lat="52.005356" lon="-2.199107"><ele>57.82</ele><time>2011-08-31T09:51:51Z</time></trkpt><trkpt lat="52.005396" lon="-2.199227"><ele>58.78</ele><time>2011-08-31T09:51:59Z</time></trkpt><trkpt lat="52.005480" lon="-2.199317"><ele>56.37</ele><time>2011-08-31T09:52:08Z</time></trkpt><trkpt lat="52.005566" lon="-2.199363"><ele>54.93</ele><time>2011-08-31T09:52:14Z</time></trkpt><trkpt lat="52.005619" lon="-2.199481"><ele>55.89</ele><time>2011-08-31T09:52:23Z</time></trkpt><trkpt lat="52.005707" lon="-2.199587"><ele>58.30</ele><time>2011-08-31T09:52:33Z</time></trkpt><trkpt lat="52.005806" lon="-2.199678"><ele>58.78</ele><time>2011-08-31T09:52:44Z</time></trkpt><trkpt lat="52.005844" lon="-2.199701"><ele>59.26</ele><time>2011-08-31T09:52:51Z</time></trkpt><trkpt lat="52.005913" lon="-2.199753"><ele>61.18</ele><time>2011-08-31T09:52:59Z</time></trkpt><trkpt lat="52.006017" lon="-2.199835"><ele>61.18</ele><time>2011-08-31T09:53:09Z</time></trkpt><trkpt lat="52.006044" lon="-2.199868"><ele>61.18</ele><time>2011-08-31T09:53:17Z</time></trkpt><trkpt lat="52.006131" lon="-2.199967"><ele>62.14</ele><time>2011-08-31T09:53:27Z</time></trkpt><trkpt lat="52.006218" lon="-2.200077"><ele>62.14</ele><time>2011-08-31T09:53:38Z</time></trkpt><trkpt lat="52.006272" lon="-2.200170"><ele>61.18</ele><time>2011-08-31T09:53:47Z</time></trkpt><trkpt lat="52.006285" lon="-2.200200"><ele>60.70</ele><time>2011-08-31T09:54:00Z</time></trkpt><trkpt lat="52.006349" lon="-2.200286"><ele>60.70</ele><time>2011-08-31T09:54:08Z</time></trkpt><trkpt lat="52.006417" lon="-2.200391"><ele>60.22</ele><time>2011-08-31T09:54:17Z</time></trkpt><trkpt lat="52.006479" lon="-2.200471"><ele>60.22</ele><time>2011-08-31T09:54:26Z</time></trkpt><trkpt lat="52.006486" lon="-2.200507"><ele>60.22</ele><time>2011-08-31T09:54:30Z</time></trkpt><trkpt lat="52.006533" lon="-2.200573"><ele>61.18</ele><time>2011-08-31T09:54:38Z</time></trkpt><trkpt lat="52.006583" lon="-2.200616"><ele>61.18</ele><time>2011-08-31T09:54:44Z</time></trkpt><trkpt lat="52.006638" lon="-2.200671"><ele>60.22</ele><time>2011-08-31T09:54:51Z</time></trkpt><trkpt lat="52.006673" lon="-2.200702"><ele>59.74</ele><time>2011-08-31T09:54:55Z</time></trkpt><trkpt lat="52.006741" lon="-2.200740"><ele>59.26</ele><time>2011-08-31T09:55:03Z</time></trkpt><trkpt lat="52.006755" lon="-2.200745"><ele>59.26</ele><time>2011-08-31T09:55:05Z</time></trkpt><trkpt lat="52.006774" lon="-2.200756"><ele>58.78</ele><time>2011-08-31T09:55:08Z</time></trkpt><trkpt lat="52.006866" lon="-2.200793"><ele>59.26</ele><time>2011-08-31T09:55:18Z</time></trkpt><trkpt lat="52.006935" lon="-2.200824"><ele>58.78</ele><time>2011-08-31T09:55:26Z</time></trkpt><trkpt lat="52.006957" lon="-2.200820"><ele>59.26</ele><time>2011-08-31T09:55:34Z</time></trkpt><trkpt lat="52.006985" lon="-2.200828"><ele>59.74</ele><time>2011-08-31T09:55:52Z</time></trkpt><trkpt lat="52.007011" lon="-2.200843"><ele>59.74</ele><time>2011-08-31T09:55:55Z</time></trkpt><trkpt lat="52.007043" lon="-2.200868"><ele>58.78</ele><time>2011-08-31T09:56:03Z</time></trkpt><trkpt lat="52.007116" lon="-2.200839"><ele>55.89</ele><time>2011-08-31T09:56:15Z</time></trkpt><trkpt lat="52.007176" lon="-2.200881"><ele>53.01</ele><time>2011-08-31T09:56:24Z</time></trkpt><trkpt lat="52.007237" lon="-2.200882"><ele>52.53</ele><time>2011-08-31T09:56:33Z</time></trkpt><trkpt lat="52.007208" lon="-2.200855"><ele>53.01</ele><time>2011-08-31T09:56:40Z</time></trkpt><trkpt lat="52.007152" lon="-2.200820"><ele>53.97</ele><time>2011-08-31T09:56:52Z</time></trkpt><trkpt lat="52.007151" lon="-2.200831"><ele>53.01</ele><time>2011-08-31T09:57:02Z</time></trkpt><trkpt lat="52.007192" lon="-2.200840"><ele>55.41</ele><time>2011-08-31T09:57:24Z</time></trkpt><trkpt lat="52.007249" lon="-2.200837"><ele>55.89</ele><time>2011-08-31T09:57:34Z</time></trkpt><trkpt lat="52.007317" lon="-2.200840"><ele>55.41</ele><time>2011-08-31T09:57:44Z</time></trkpt><trkpt lat="52.007355" lon="-2.200840"><ele>55.41</ele><time>2011-08-31T09:57:49Z</time></trkpt><trkpt lat="52.007465" lon="-2.200838"><ele>55.41</ele><time>2011-08-31T09:58:02Z</time></trkpt><trkpt lat="52.007566" lon="-2.200853"><ele>55.41</ele><time>2011-08-31T09:58:14Z</time></trkpt><trkpt lat="52.007646" lon="-2.200900"><ele>55.89</ele><time>2011-08-31T09:58:25Z</time></trkpt><trkpt lat="52.007758" lon="-2.200933"><ele>57.34</ele><time>2011-08-31T09:58:37Z</time></trkpt><trkpt lat="52.007845" lon="-2.200944"><ele>56.86</ele><time>2011-08-31T09:58:48Z</time></trkpt><trkpt lat="52.007954" lon="-2.200944"><ele>57.34</ele><time>2011-08-31T09:59:00Z</time></trkpt><trkpt lat="52.008037" lon="-2.200941"><ele>57.34</ele><time>2011-08-31T09:59:09Z</time></trkpt><trkpt lat="52.008129" lon="-2.200916"><ele>57.82</ele><time>2011-08-31T09:59:19Z</time></trkpt><trkpt lat="52.008214" lon="-2.200906"><ele>57.34</ele><time>2011-08-31T09:59:28Z</time></trkpt><trkpt lat="52.008308" lon="-2.200864"><ele>58.30</ele><time>2011-08-31T09:59:38Z</time></trkpt><trkpt lat="52.008422" lon="-2.200847"><ele>57.82</ele><time>2011-08-31T09:59:47Z</time></trkpt><trkpt lat="52.008491" lon="-2.200812"><ele>57.82</ele><time>2011-08-31T09:59:54Z</time></trkpt><trkpt lat="52.008509" lon="-2.200800"><ele>57.82</ele><time>2011-08-31T09:59:56Z</time></trkpt><trkpt lat="52.008593" lon="-2.200751"><ele>58.78</ele><time>2011-08-31T10:00:05Z</time></trkpt><trkpt lat="52.008682" lon="-2.200694"><ele>57.82</ele><time>2011-08-31T10:00:14Z</time></trkpt><trkpt lat="52.008714" lon="-2.200659"><ele>58.30</ele><time>2011-08-31T10:00:20Z</time></trkpt><trkpt lat="52.008725" lon="-2.200654"><ele>58.30</ele><time>2011-08-31T10:00:32Z</time></trkpt><trkpt lat="52.008793" lon="-2.200702"><ele>58.30</ele><time>2011-08-31T10:00:42Z</time></trkpt><trkpt lat="52.008844" lon="-2.200783"><ele>59.74</ele><time>2011-08-31T10:00:50Z</time></trkpt><trkpt lat="52.008894" lon="-2.200870"><ele>59.74</ele><time>2011-08-31T10:00:58Z</time></trkpt><trkpt lat="52.008927" lon="-2.200931"><ele>60.70</ele><time>2011-08-31T10:01:03Z</time></trkpt><trkpt lat="52.008975" lon="-2.201015"><ele>61.66</ele><time>2011-08-31T10:01:10Z</time></trkpt><trkpt lat="52.009023" lon="-2.201106"><ele>63.58</ele><time>2011-08-31T10:01:18Z</time></trkpt><trkpt lat="52.009096" lon="-2.201226"><ele>64.07</ele><time>2011-08-31T10:01:30Z</time></trkpt><trkpt lat="52.009150" lon="-2.201304"><ele>64.07</ele><time>2011-08-31T10:01:38Z</time></trkpt><trkpt lat="52.009200" lon="-2.201363"><ele>64.55</ele><time>2011-08-31T10:01:45Z</time></trkpt><trkpt lat="52.009278" lon="-2.201473"><ele>64.07</ele><time>2011-08-31T10:01:54Z</time></trkpt><trkpt lat="52.009336" lon="-2.201540"><ele>63.58</ele><time>2011-08-31T10:02:00Z</time></trkpt><trkpt lat="52.009406" lon="-2.201633"><ele>63.10</ele><time>2011-08-31T10:02:09Z</time></trkpt><trkpt lat="52.009486" lon="-2.201711"><ele>62.14</ele><time>2011-08-31T10:02:18Z</time></trkpt><trkpt lat="52.009542" lon="-2.201781"><ele>62.14</ele><time>2011-08-31T10:02:25Z</time></trkpt><trkpt lat="52.009602" lon="-2.201876"><ele>61.66</ele><time>2011-08-31T10:02:34Z</time></trkpt><trkpt lat="52.009653" lon="-2.201968"><ele>61.66</ele><time>2011-08-31T10:02:43Z</time></trkpt><trkpt lat="52.009709" lon="-2.202069"><ele>60.70</ele><time>2011-08-31T10:02:52Z</time></trkpt><trkpt lat="52.009759" lon="-2.202144"><ele>61.18</ele><time>2011-08-31T10:02:59Z</time></trkpt><trkpt lat="52.009822" lon="-2.202253"><ele>60.70</ele><time>2011-08-31T10:03:09Z</time></trkpt><trkpt lat="52.009879" lon="-2.202361"><ele>60.22</ele><time>2011-08-31T10:03:18Z</time></trkpt><trkpt lat="52.009942" lon="-2.202432"><ele>59.74</ele><time>2011-08-31T10:03:27Z</time></trkpt><trkpt lat="52.010007" lon="-2.202541"><ele>60.22</ele><time>2011-08-31T10:03:36Z</time></trkpt><trkpt lat="52.010065" lon="-2.202647"><ele>60.70</ele><time>2011-08-31T10:03:46Z</time></trkpt><trkpt lat="52.010102" lon="-2.202755"><ele>60.70</ele><time>2011-08-31T10:03:54Z</time></trkpt><trkpt lat="52.010148" lon="-2.202836"><ele>60.22</ele><time>2011-08-31T10:04:01Z</time></trkpt><trkpt lat="52.010161" lon="-2.202852"><ele>60.70</ele><time>2011-08-31T10:04:03Z</time></trkpt><trkpt lat="52.010194" lon="-2.202909"><ele>60.22</ele><time>2011-08-31T10:04:10Z</time></trkpt><trkpt lat="52.010198" lon="-2.202921"><ele>60.22</ele><time>2011-08-31T10:04:11Z</time></trkpt><trkpt lat="52.010267" lon="-2.203042"><ele>61.18</ele><time>2011-08-31T10:04:21Z</time></trkpt><trkpt lat="52.010317" lon="-2.203158"><ele>61.66</ele><time>2011-08-31T10:04:30Z</time></trkpt><trkpt lat="52.010388" lon="-2.203277"><ele>61.66</ele><time>2011-08-31T10:04:39Z</time></trkpt><trkpt lat="52.010457" lon="-2.203419"><ele>60.70</ele><time>2011-08-31T10:04:50Z</time></trkpt><trkpt lat="52.010532" lon="-2.203562"><ele>60.70</ele><time>2011-08-31T10:05:01Z</time></trkpt><trkpt lat="52.010597" lon="-2.203684"><ele>60.70</ele><time>2011-08-31T10:05:11Z</time></trkpt><trkpt lat="52.010657" lon="-2.203819"><ele>60.22</ele><time>2011-08-31T10:05:21Z</time></trkpt><trkpt lat="52.010669" lon="-2.203913"><ele>62.14</ele><time>2011-08-31T10:05:28Z</time></trkpt><trkpt lat="52.010683" lon="-2.203979"><ele>61.18</ele><time>2011-08-31T10:05:36Z</time></trkpt><trkpt lat="52.010708" lon="-2.204065"><ele>58.78</ele><time>2011-08-31T10:05:59Z</time></trkpt><trkpt lat="52.010732" lon="-2.204069"><ele>59.26</ele><time>2011-08-31T10:06:16Z</time></trkpt><trkpt lat="52.010713" lon="-2.203972"><ele>56.86</ele><time>2011-08-31T10:06:45Z</time></trkpt><trkpt lat="52.010707" lon="-2.203918"><ele>60.22</ele><time>2011-08-31T10:07:05Z</time></trkpt><trkpt lat="52.010673" lon="-2.203838"><ele>60.22</ele><time>2011-08-31T10:07:14Z</time></trkpt><trkpt lat="52.010665" lon="-2.203797"><ele>59.74</ele><time>2011-08-31T10:07:27Z</time></trkpt><trkpt lat="52.010669" lon="-2.203786"><ele>59.74</ele><time>2011-08-31T10:08:09Z</time></trkpt><trkpt lat="52.010702" lon="-2.203892"><ele>56.86</ele><time>2011-08-31T10:09:22Z</time></trkpt><trkpt lat="52.010815" lon="-2.204049"><ele>54.45</ele><time>2011-08-31T10:10:18Z</time></trkpt><trkpt lat="52.010836" lon="-2.204052"><ele>55.41</ele><time>2011-08-31T10:15:07Z</time></trkpt><trkpt lat="52.010790" lon="-2.203981"><ele>57.34</ele><time>2011-08-31T10:16:31Z</time></trkpt><trkpt lat="52.010771" lon="-2.203930"><ele>55.41</ele><time>2011-08-31T10:16:49Z</time></trkpt><trkpt lat="52.010730" lon="-2.203926"><ele>53.01</ele><time>2011-08-31T10:17:42Z</time></trkpt><trkpt lat="52.010728" lon="-2.203917"><ele>55.41</ele><time>2011-08-31T10:17:59Z</time></trkpt><trkpt lat="52.010742" lon="-2.203915"><ele>57.34</ele><time>2011-08-31T10:18:13Z</time></trkpt><trkpt lat="52.010741" lon="-2.203926"><ele>56.86</ele><time>2011-08-31T10:18:58Z</time></trkpt><trkpt lat="52.010747" lon="-2.203924"><ele>56.86</ele><time>2011-08-31T10:19:00Z</time></trkpt><trkpt lat="52.010796" lon="-2.203885"><ele>56.86</ele><time>2011-08-31T10:19:07Z</time></trkpt><trkpt lat="52.010799" lon="-2.203899"><ele>57.34</ele><time>2011-08-31T10:19:14Z</time></trkpt><trkpt lat="52.010837" lon="-2.203863"><ele>59.26</ele><time>2011-08-31T10:19:21Z</time></trkpt><trkpt lat="52.010877" lon="-2.203883"><ele>61.18</ele><time>2011-08-31T10:19:28Z</time></trkpt><trkpt lat="52.010900" lon="-2.203887"><ele>61.66</ele><time>2011-08-31T10:19:31Z</time></trkpt><trkpt lat="52.010969" lon="-2.203901"><ele>61.66</ele><time>2011-08-31T10:19:39Z</time></trkpt><trkpt lat="52.011032" lon="-2.203919"><ele>60.70</ele><time>2011-08-31T10:19:45Z</time></trkpt><trkpt lat="52.011122" lon="-2.203942"><ele>58.78</ele><time>2011-08-31T10:19:54Z</time></trkpt><trkpt lat="52.011182" lon="-2.203959"><ele>57.34</ele><time>2011-08-31T10:20:02Z</time></trkpt><trkpt lat="52.011290" lon="-2.203926"><ele>56.86</ele><time>2011-08-31T10:20:11Z</time></trkpt><trkpt lat="52.011414" lon="-2.203854"><ele>58.78</ele><time>2011-08-31T10:20:20Z</time></trkpt><trkpt lat="52.011410" lon="-2.203859"><ele>59.26</ele><time>2011-08-31T10:20:32Z</time></trkpt><trkpt lat="52.011423" lon="-2.203904"><ele>56.86</ele><time>2011-08-31T10:20:38Z</time></trkpt><trkpt lat="52.011468" lon="-2.203998"><ele>57.34</ele><time>2011-08-31T10:20:50Z</time></trkpt><trkpt lat="52.011471" lon="-2.203999"><ele>56.86</ele><time>2011-08-31T10:20:56Z</time></trkpt><trkpt lat="52.011507" lon="-2.204083"><ele>55.41</ele><time>2011-08-31T10:21:06Z</time></trkpt><trkpt lat="52.011524" lon="-2.204161"><ele>55.41</ele><time>2011-08-31T10:21:14Z</time></trkpt><trkpt lat="52.011561" lon="-2.204256"><ele>53.97</ele><time>2011-08-31T10:21:21Z</time></trkpt><trkpt lat="52.011594" lon="-2.204373"><ele>52.53</ele><time>2011-08-31T10:21:29Z</time></trkpt><trkpt lat="52.011627" lon="-2.204511"><ele>50.61</ele><time>2011-08-31T10:21:42Z</time></trkpt><trkpt lat="52.011665" lon="-2.204689"><ele>50.61</ele><time>2011-08-31T10:21:56Z</time></trkpt><trkpt lat="52.011687" lon="-2.204885"><ele>51.57</ele><time>2011-08-31T10:22:08Z</time></trkpt><trkpt lat="52.011683" lon="-2.204933"><ele>51.09</ele><time>2011-08-31T10:22:11Z</time></trkpt><trkpt lat="52.011687" lon="-2.205088"><ele>51.09</ele><time>2011-08-31T10:22:20Z</time></trkpt><trkpt lat="52.011698" lon="-2.205286"><ele>49.65</ele><time>2011-08-31T10:22:31Z</time></trkpt><trkpt lat="52.011768" lon="-2.205378"><ele>47.72</ele><time>2011-08-31T10:22:39Z</time></trkpt><trkpt lat="52.011801" lon="-2.205530"><ele>47.72</ele><time>2011-08-31T10:22:49Z</time></trkpt><trkpt lat="52.011836" lon="-2.205615"><ele>47.72</ele><time>2011-08-31T10:22:54Z</time></trkpt><trkpt lat="52.011878" lon="-2.205734"><ele>47.24</ele><time>2011-08-31T10:23:03Z</time></trkpt><trkpt lat="52.011925" lon="-2.205821"><ele>46.76</ele><time>2011-08-31T10:23:11Z</time></trkpt><trkpt lat="52.011970" lon="-2.205922"><ele>47.72</ele><time>2011-08-31T10:23:19Z</time></trkpt><trkpt lat="52.011988" lon="-2.205952"><ele>48.68</ele><time>2011-08-31T10:23:22Z</time></trkpt><trkpt lat="52.012011" lon="-2.206060"><ele>48.20</ele><time>2011-08-31T10:23:30Z</time></trkpt><trkpt lat="52.012058" lon="-2.206163"><ele>46.76</ele><time>2011-08-31T10:23:39Z</time></trkpt><trkpt lat="52.012097" lon="-2.206201"><ele>47.72</ele><time>2011-08-31T10:23:44Z</time></trkpt><trkpt lat="52.012190" lon="-2.206220"><ele>49.65</ele><time>2011-08-31T10:23:52Z</time></trkpt><trkpt lat="52.012263" lon="-2.206201"><ele>49.65</ele><time>2011-08-31T10:24:00Z</time></trkpt><trkpt lat="52.012307" lon="-2.206158"><ele>46.76</ele><time>2011-08-31T10:24:08Z</time></trkpt><trkpt lat="52.012398" lon="-2.206095"><ele>45.80</ele><time>2011-08-31T10:24:18Z</time></trkpt><trkpt lat="52.012475" lon="-2.206035"><ele>41.95</ele><time>2011-08-31T10:24:29Z</time></trkpt><trkpt lat="52.012541" lon="-2.205990"><ele>40.03</ele><time>2011-08-31T10:24:38Z</time></trkpt><trkpt lat="52.012616" lon="-2.205917"><ele>39.55</ele><time>2011-08-31T10:24:48Z</time></trkpt><trkpt lat="52.012682" lon="-2.205857"><ele>40.51</ele><time>2011-08-31T10:24:56Z</time></trkpt><trkpt lat="52.012776" lon="-2.205787"><ele>40.99</ele><time>2011-08-31T10:25:07Z</time></trkpt><trkpt lat="52.012851" lon="-2.205716"><ele>40.51</ele><time>2011-08-31T10:25:15Z</time></trkpt><trkpt lat="52.012929" lon="-2.205660"><ele>40.03</ele><time>2011-08-31T10:25:25Z</time></trkpt><trkpt lat="52.013009" lon="-2.205605"><ele>39.55</ele><time>2011-08-31T10:25:33Z</time></trkpt><trkpt lat="52.013096" lon="-2.205557"><ele>39.07</ele><time>2011-08-31T10:25:41Z</time></trkpt><trkpt lat="52.013175" lon="-2.205569"><ele>38.11</ele><time>2011-08-31T10:25:50Z</time></trkpt><trkpt lat="52.013279" lon="-2.205631"><ele>38.11</ele><time>2011-08-31T10:26:00Z</time></trkpt><trkpt lat="52.013333" lon="-2.205671"><ele>38.11</ele><time>2011-08-31T10:26:05Z</time></trkpt><trkpt lat="52.013410" lon="-2.205736"><ele>38.59</ele><time>2011-08-31T10:26:13Z</time></trkpt><trkpt lat="52.013470" lon="-2.205836"><ele>38.59</ele><time>2011-08-31T10:26:21Z</time></trkpt><trkpt lat="52.013535" lon="-2.205929"><ele>39.55</ele><time>2011-08-31T10:26:31Z</time></trkpt><trkpt lat="52.013602" lon="-2.206037"><ele>39.07</ele><time>2011-08-31T10:26:40Z</time></trkpt><trkpt lat="52.013657" lon="-2.206115"><ele>38.11</ele><time>2011-08-31T10:26:48Z</time></trkpt><trkpt lat="52.013696" lon="-2.206178"><ele>37.63</ele><time>2011-08-31T10:26:54Z</time></trkpt><trkpt lat="52.013733" lon="-2.206277"><ele>40.03</ele><time>2011-08-31T10:27:02Z</time></trkpt><trkpt lat="52.013746" lon="-2.206357"><ele>40.51</ele><time>2011-08-31T10:27:07Z</time></trkpt><trkpt lat="52.013771" lon="-2.206498"><ele>40.99</ele><time>2011-08-31T10:27:16Z</time></trkpt><trkpt lat="52.013784" lon="-2.206594"><ele>40.51</ele><time>2011-08-31T10:27:22Z</time></trkpt><trkpt lat="52.013817" lon="-2.206747"><ele>41.47</ele><time>2011-08-31T10:27:32Z</time></trkpt><trkpt lat="52.013847" lon="-2.206866"><ele>41.95</ele><time>2011-08-31T10:27:41Z</time></trkpt><trkpt lat="52.013881" lon="-2.206967"><ele>42.44</ele><time>2011-08-31T10:27:49Z</time></trkpt><trkpt lat="52.013928" lon="-2.207081"><ele>42.92</ele><time>2011-08-31T10:27:57Z</time></trkpt><trkpt lat="52.013977" lon="-2.207204"><ele>42.44</ele><time>2011-08-31T10:28:06Z</time></trkpt><trkpt lat="52.014034" lon="-2.207346"><ele>42.92</ele><time>2011-08-31T10:28:16Z</time></trkpt><trkpt lat="52.014083" lon="-2.207450"><ele>42.92</ele><time>2011-08-31T10:28:26Z</time></trkpt><trkpt lat="52.014125" lon="-2.207535"><ele>42.44</ele><time>2011-08-31T10:28:34Z</time></trkpt><trkpt lat="52.014201" lon="-2.207693"><ele>41.95</ele><time>2011-08-31T10:28:47Z</time></trkpt><trkpt lat="52.014252" lon="-2.207840"><ele>41.47</ele><time>2011-08-31T10:28:57Z</time></trkpt><trkpt lat="52.014261" lon="-2.207870"><ele>41.47</ele><time>2011-08-31T10:28:59Z</time></trkpt><trkpt lat="52.014290" lon="-2.208006"><ele>40.99</ele><time>2011-08-31T10:29:08Z</time></trkpt><trkpt lat="52.014296" lon="-2.208120"><ele>40.51</ele><time>2011-08-31T10:29:16Z</time></trkpt><trkpt lat="52.014299" lon="-2.208161"><ele>40.99</ele><time>2011-08-31T10:29:19Z</time></trkpt><trkpt lat="52.014317" lon="-2.208304"><ele>40.03</ele><time>2011-08-31T10:29:29Z</time></trkpt><trkpt lat="52.014312" lon="-2.208453"><ele>40.51</ele><time>2011-08-31T10:29:38Z</time></trkpt><trkpt lat="52.014318" lon="-2.208589"><ele>40.99</ele><time>2011-08-31T10:29:47Z</time></trkpt><trkpt lat="52.014333" lon="-2.208701"><ele>40.99</ele><time>2011-08-31T10:29:55Z</time></trkpt><trkpt lat="52.014341" lon="-2.208834"><ele>41.47</ele><time>2011-08-31T10:30:04Z</time></trkpt><trkpt lat="52.014356" lon="-2.208978"><ele>41.47</ele><time>2011-08-31T10:30:13Z</time></trkpt><trkpt lat="52.014385" lon="-2.209057"><ele>41.95</ele><time>2011-08-31T10:30:23Z</time></trkpt><trkpt lat="52.014400" lon="-2.209105"><ele>42.92</ele><time>2011-08-31T10:30:29Z</time></trkpt><trkpt lat="52.014439" lon="-2.209244"><ele>43.40</ele><time>2011-08-31T10:30:38Z</time></trkpt><trkpt lat="52.014463" lon="-2.209362"><ele>43.40</ele><time>2011-08-31T10:30:46Z</time></trkpt><trkpt lat="52.014492" lon="-2.209485"><ele>42.44</ele><time>2011-08-31T10:30:55Z</time></trkpt><trkpt lat="52.014527" lon="-2.209637"><ele>41.47</ele><time>2011-08-31T10:31:05Z</time></trkpt><trkpt lat="52.014562" lon="-2.209755"><ele>41.47</ele><time>2011-08-31T10:31:13Z</time></trkpt><trkpt lat="52.014596" lon="-2.209897"><ele>41.47</ele><time>2011-08-31T10:31:22Z</time></trkpt><trkpt lat="52.014619" lon="-2.209987"><ele>41.47</ele><time>2011-08-31T10:31:28Z</time></trkpt><trkpt lat="52.014642" lon="-2.210098"><ele>41.47</ele><time>2011-08-31T10:31:36Z</time></trkpt><trkpt lat="52.014667" lon="-2.210212"><ele>40.99</ele><time>2011-08-31T10:31:44Z</time></trkpt><trkpt lat="52.014705" lon="-2.210313"><ele>40.51</ele><time>2011-08-31T10:31:51Z</time></trkpt><trkpt lat="52.014747" lon="-2.210433"><ele>40.03</ele><time>2011-08-31T10:31:59Z</time></trkpt><trkpt lat="52.014760" lon="-2.210456"><ele>40.51</ele><time>2011-08-31T10:32:01Z</time></trkpt><trkpt lat="52.014804" lon="-2.210561"><ele>40.51</ele><time>2011-08-31T10:32:09Z</time></trkpt><trkpt lat="52.014820" lon="-2.210596"><ele>40.03</ele><time>2011-08-31T10:32:12Z</time></trkpt><trkpt lat="52.014890" lon="-2.210633"><ele>37.63</ele><time>2011-08-31T10:32:20Z</time></trkpt><trkpt lat="52.014957" lon="-2.210676"><ele>36.19</ele><time>2011-08-31T10:32:28Z</time></trkpt><trkpt lat="52.015012" lon="-2.210710"><ele>37.15</ele><time>2011-08-31T10:32:37Z</time></trkpt><trkpt lat="52.015025" lon="-2.210724"><ele>38.11</ele><time>2011-08-31T10:32:47Z</time></trkpt><trkpt lat="52.015052" lon="-2.210787"><ele>37.15</ele><time>2011-08-31T10:32:54Z</time></trkpt><trkpt lat="52.015082" lon="-2.210889"><ele>37.15</ele><time>2011-08-31T10:33:05Z</time></trkpt><trkpt lat="52.015130" lon="-2.210976"><ele>33.30</ele><time>2011-08-31T10:33:16Z</time></trkpt><trkpt lat="52.015167" lon="-2.211048"><ele>33.78</ele><time>2011-08-31T10:33:25Z</time></trkpt><trkpt lat="52.015216" lon="-2.211147"><ele>33.78</ele><time>2011-08-31T10:33:35Z</time></trkpt><trkpt lat="52.015279" lon="-2.211305"><ele>31.86</ele><time>2011-08-31T10:33:50Z</time></trkpt><trkpt lat="52.015280" lon="-2.211307"><ele>31.38</ele><time>2011-08-31T10:33:51Z</time></trkpt><trkpt lat="52.015373" lon="-2.211486"><ele>29.46</ele><time>2011-08-31T10:34:03Z</time></trkpt><trkpt lat="52.015438" lon="-2.211597"><ele>28.98</ele><time>2011-08-31T10:34:11Z</time></trkpt><trkpt lat="52.015510" lon="-2.211727"><ele>28.50</ele><time>2011-08-31T10:34:22Z</time></trkpt><trkpt lat="52.015587" lon="-2.211827"><ele>28.98</ele><time>2011-08-31T10:34:32Z</time></trkpt><trkpt lat="52.015660" lon="-2.211923"><ele>28.50</ele><time>2011-08-31T10:34:42Z</time></trkpt><trkpt lat="52.015736" lon="-2.212038"><ele>28.98</ele><time>2011-08-31T10:34:53Z</time></trkpt><trkpt lat="52.015805" lon="-2.212166"><ele>28.50</ele><time>2011-08-31T10:35:03Z</time></trkpt><trkpt lat="52.015891" lon="-2.212313"><ele>28.98</ele><time>2011-08-31T10:35:15Z</time></trkpt><trkpt lat="52.015986" lon="-2.212469"><ele>28.02</ele><time>2011-08-31T10:35:28Z</time></trkpt><trkpt lat="52.016012" lon="-2.212502"><ele>28.02</ele><time>2011-08-31T10:35:31Z</time></trkpt><trkpt lat="52.016073" lon="-2.212629"><ele>27.53</ele><time>2011-08-31T10:35:41Z</time></trkpt><trkpt lat="52.016148" lon="-2.212791"><ele>26.09</ele><time>2011-08-31T10:35:53Z</time></trkpt><trkpt lat="52.016212" lon="-2.212897"><ele>26.09</ele><time>2011-08-31T10:36:02Z</time></trkpt><trkpt lat="52.016289" lon="-2.213026"><ele>26.09</ele><time>2011-08-31T10:36:13Z</time></trkpt><trkpt lat="52.016357" lon="-2.213158"><ele>25.61</ele><time>2011-08-31T10:36:22Z</time></trkpt><trkpt lat="52.016435" lon="-2.213304"><ele>25.13</ele><time>2011-08-31T10:36:32Z</time></trkpt><trkpt lat="52.016518" lon="-2.213445"><ele>24.17</ele><time>2011-08-31T10:36:43Z</time></trkpt><trkpt lat="52.016593" lon="-2.213570"><ele>23.69</ele><time>2011-08-31T10:36:53Z</time></trkpt><trkpt lat="52.016663" lon="-2.213701"><ele>23.21</ele><time>2011-08-31T10:37:03Z</time></trkpt><trkpt lat="52.016721" lon="-2.213836"><ele>23.21</ele><time>2011-08-31T10:37:13Z</time></trkpt><trkpt lat="52.016789" lon="-2.213951"><ele>24.17</ele><time>2011-08-31T10:37:22Z</time></trkpt><trkpt lat="52.016833" lon="-2.214060"><ele>24.65</ele><time>2011-08-31T10:37:30Z</time></trkpt><trkpt lat="52.016890" lon="-2.214193"><ele>24.65</ele><time>2011-08-31T10:37:40Z</time></trkpt><trkpt lat="52.016938" lon="-2.214323"><ele>25.13</ele><time>2011-08-31T10:37:49Z</time></trkpt><trkpt lat="52.016994" lon="-2.214448"><ele>25.13</ele><time>2011-08-31T10:37:58Z</time></trkpt><trkpt lat="52.017052" lon="-2.214574"><ele>25.61</ele><time>2011-08-31T10:38:08Z</time></trkpt><trkpt lat="52.017115" lon="-2.214690"><ele>25.13</ele><time>2011-08-31T10:38:18Z</time></trkpt><trkpt lat="52.017166" lon="-2.214783"><ele>24.65</ele><time>2011-08-31T10:38:25Z</time></trkpt><trkpt lat="52.017197" lon="-2.214831"><ele>25.13</ele><time>2011-08-31T10:38:32Z</time></trkpt><trkpt lat="52.017201" lon="-2.214858"><ele>25.61</ele><time>2011-08-31T10:38:42Z</time></trkpt><trkpt lat="52.017204" lon="-2.214885"><ele>26.09</ele><time>2011-08-31T10:38:51Z</time></trkpt><trkpt lat="52.017212" lon="-2.214909"><ele>26.09</ele><time>2011-08-31T10:38:54Z</time></trkpt><trkpt lat="52.017254" lon="-2.214989"><ele>26.09</ele><time>2011-08-31T10:39:01Z</time></trkpt><trkpt lat="52.017298" lon="-2.215088"><ele>25.13</ele><time>2011-08-31T10:39:09Z</time></trkpt><trkpt lat="52.017361" lon="-2.215229"><ele>25.13</ele><time>2011-08-31T10:39:20Z</time></trkpt><trkpt lat="52.017422" lon="-2.215358"><ele>24.65</ele><time>2011-08-31T10:39:30Z</time></trkpt><trkpt lat="52.017497" lon="-2.215504"><ele>24.17</ele><time>2011-08-31T10:39:41Z</time></trkpt><trkpt lat="52.017560" lon="-2.215633"><ele>23.69</ele><time>2011-08-31T10:39:51Z</time></trkpt><trkpt lat="52.017636" lon="-2.215821"><ele>23.69</ele><time>2011-08-31T10:40:04Z</time></trkpt><trkpt lat="52.017683" lon="-2.215969"><ele>23.69</ele><time>2011-08-31T10:40:14Z</time></trkpt><trkpt lat="52.017731" lon="-2.216088"><ele>22.73</ele><time>2011-08-31T10:40:22Z</time></trkpt><trkpt lat="52.017792" lon="-2.216287"><ele>21.77</ele><time>2011-08-31T10:40:35Z</time></trkpt><trkpt lat="52.017841" lon="-2.216465"><ele>21.29</ele><time>2011-08-31T10:40:47Z</time></trkpt><trkpt lat="52.017873" lon="-2.216593"><ele>20.32</ele><time>2011-08-31T10:40:55Z</time></trkpt><trkpt lat="52.017904" lon="-2.216747"><ele>18.88</ele><time>2011-08-31T10:41:05Z</time></trkpt><trkpt lat="52.017932" lon="-2.216899"><ele>18.40</ele><time>2011-08-31T10:41:15Z</time></trkpt><trkpt lat="52.017967" lon="-2.217046"><ele>17.44</ele><time>2011-08-31T10:41:25Z</time></trkpt><trkpt lat="52.017992" lon="-2.217148"><ele>17.44</ele><time>2011-08-31T10:41:34Z</time></trkpt><trkpt lat="52.018004" lon="-2.217187"><ele>17.92</ele><time>2011-08-31T10:41:41Z</time></trkpt><trkpt lat="52.018009" lon="-2.217247"><ele>17.92</ele><time>2011-08-31T10:41:51Z</time></trkpt><trkpt lat="52.018029" lon="-2.217330"><ele>17.92</ele><time>2011-08-31T10:41:57Z</time></trkpt><trkpt lat="52.018052" lon="-2.217489"><ele>18.40</ele><time>2011-08-31T10:42:07Z</time></trkpt><trkpt lat="52.018070" lon="-2.217628"><ele>18.88</ele><time>2011-08-31T10:42:15Z</time></trkpt><trkpt lat="52.018103" lon="-2.217761"><ele>18.88</ele><time>2011-08-31T10:42:23Z</time></trkpt><trkpt lat="52.018142" lon="-2.217880"><ele>19.36</ele><time>2011-08-31T10:42:31Z</time></trkpt><trkpt lat="52.018178" lon="-2.218003"><ele>19.36</ele><time>2011-08-31T10:42:39Z</time></trkpt><trkpt lat="52.018222" lon="-2.218166"><ele>19.84</ele><time>2011-08-31T10:42:49Z</time></trkpt><trkpt lat="52.018259" lon="-2.218305"><ele>20.81</ele><time>2011-08-31T10:42:58Z</time></trkpt><trkpt lat="52.018307" lon="-2.218472"><ele>21.29</ele><time>2011-08-31T10:43:09Z</time></trkpt><trkpt lat="52.018361" lon="-2.218626"><ele>20.81</ele><time>2011-08-31T10:43:19Z</time></trkpt><trkpt lat="52.018441" lon="-2.218805"><ele>20.32</ele><time>2011-08-31T10:43:31Z</time></trkpt><trkpt lat="52.018522" lon="-2.218982"><ele>20.32</ele><time>2011-08-31T10:43:43Z</time></trkpt><trkpt lat="52.018561" lon="-2.219106"><ele>20.32</ele><time>2011-08-31T10:43:51Z</time></trkpt><trkpt lat="52.018582" lon="-2.219195"><ele>20.32</ele><time>2011-08-31T10:43:57Z</time></trkpt><trkpt lat="52.018608" lon="-2.219352"><ele>20.32</ele><time>2011-08-31T10:44:07Z</time></trkpt><trkpt lat="52.018617" lon="-2.219503"><ele>21.29</ele><time>2011-08-31T10:44:16Z</time></trkpt><trkpt lat="52.018622" lon="-2.219630"><ele>22.25</ele><time>2011-08-31T10:44:24Z</time></trkpt><trkpt lat="52.018625" lon="-2.219755"><ele>22.73</ele><time>2011-08-31T10:44:32Z</time></trkpt><trkpt lat="52.018636" lon="-2.219876"><ele>23.69</ele><time>2011-08-31T10:44:40Z</time></trkpt><trkpt lat="52.018645" lon="-2.220000"><ele>24.65</ele><time>2011-08-31T10:44:48Z</time></trkpt><trkpt lat="52.018640" lon="-2.220097"><ele>25.61</ele><time>2011-08-31T10:44:55Z</time></trkpt><trkpt lat="52.018629" lon="-2.220201"><ele>26.57</ele><time>2011-08-31T10:45:02Z</time></trkpt><trkpt lat="52.018599" lon="-2.220298"><ele>26.57</ele><time>2011-08-31T10:45:10Z</time></trkpt><trkpt lat="52.018554" lon="-2.220401"><ele>26.57</ele><time>2011-08-31T10:45:19Z</time></trkpt><trkpt lat="52.018497" lon="-2.220511"><ele>26.57</ele><time>2011-08-31T10:45:29Z</time></trkpt><trkpt lat="52.018455" lon="-2.220601"><ele>26.57</ele><time>2011-08-31T10:45:37Z</time></trkpt><trkpt lat="52.018398" lon="-2.220657"><ele>26.57</ele><time>2011-08-31T10:45:46Z</time></trkpt><trkpt lat="52.018355" lon="-2.220655"><ele>26.57</ele><time>2011-08-31T10:45:53Z</time></trkpt><trkpt lat="52.018358" lon="-2.220642"><ele>26.57</ele><time>2011-08-31T10:46:18Z</time></trkpt><trkpt lat="52.018342" lon="-2.220648"><ele>26.57</ele><time>2011-08-31T10:46:32Z</time></trkpt><trkpt lat="52.018184" lon="-2.220666"><ele>26.57</ele><time>2011-08-31T10:46:47Z</time></trkpt><trkpt lat="52.018062" lon="-2.220718"><ele>26.57</ele><time>2011-08-31T10:46:59Z</time></trkpt><trkpt lat="52.017982" lon="-2.220746"><ele>27.53</ele><time>2011-08-31T10:47:07Z</time></trkpt><trkpt lat="52.017897" lon="-2.220765"><ele>28.02</ele><time>2011-08-31T10:47:15Z</time></trkpt><trkpt lat="52.017820" lon="-2.220791"><ele>28.50</ele><time>2011-08-31T10:47:22Z</time></trkpt><trkpt lat="52.017710" lon="-2.220812"><ele>28.98</ele><time>2011-08-31T10:47:32Z</time></trkpt><trkpt lat="52.017588" lon="-2.220821"><ele>29.46</ele><time>2011-08-31T10:47:43Z</time></trkpt><trkpt lat="52.017497" lon="-2.220826"><ele>29.46</ele><time>2011-08-31T10:47:51Z</time></trkpt><trkpt lat="52.017450" lon="-2.220802"><ele>29.94</ele><time>2011-08-31T10:47:59Z</time></trkpt><trkpt lat="52.017446" lon="-2.220810"><ele>29.46</ele><time>2011-08-31T10:48:01Z</time></trkpt><trkpt lat="52.017337" lon="-2.220852"><ele>29.94</ele><time>2011-08-31T10:48:11Z</time></trkpt><trkpt lat="52.017202" lon="-2.220871"><ele>31.86</ele><time>2011-08-31T10:48:23Z</time></trkpt><trkpt lat="52.017076" lon="-2.220878"><ele>33.30</ele><time>2011-08-31T10:48:34Z</time></trkpt><trkpt lat="52.016964" lon="-2.220878"><ele>33.78</ele><time>2011-08-31T10:48:44Z</time></trkpt><trkpt lat="52.016858" lon="-2.220866"><ele>34.26</ele><time>2011-08-31T10:48:54Z</time></trkpt><trkpt lat="52.016749" lon="-2.220851"><ele>34.74</ele><time>2011-08-31T10:49:04Z</time></trkpt><trkpt lat="52.016620" lon="-2.220820"><ele>34.26</ele><time>2011-08-31T10:49:16Z</time></trkpt><trkpt lat="52.016510" lon="-2.220790"><ele>33.30</ele><time>2011-08-31T10:49:26Z</time></trkpt><trkpt lat="52.016399" lon="-2.220736"><ele>32.82</ele><time>2011-08-31T10:49:37Z</time></trkpt><trkpt lat="52.016294" lon="-2.220696"><ele>33.30</ele><time>2011-08-31T10:49:47Z</time></trkpt><trkpt lat="52.016212" lon="-2.220712"><ele>34.26</ele><time>2011-08-31T10:49:55Z</time></trkpt><trkpt lat="52.016184" lon="-2.220721"><ele>34.26</ele><time>2011-08-31T10:49:58Z</time></trkpt><trkpt lat="52.016156" lon="-2.220737"><ele>33.78</ele><time>2011-08-31T10:50:01Z</time></trkpt><trkpt lat="52.016089" lon="-2.220792"><ele>32.82</ele><time>2011-08-31T10:50:11Z</time></trkpt><trkpt lat="52.016092" lon="-2.220793"><ele>32.34</ele><time>2011-08-31T10:50:14Z</time></trkpt><trkpt lat="52.016058" lon="-2.220923"><ele>32.82</ele><time>2011-08-31T10:50:23Z</time></trkpt><trkpt lat="52.016039" lon="-2.221110"><ele>32.82</ele><time>2011-08-31T10:50:33Z</time></trkpt><trkpt lat="52.016023" lon="-2.221285"><ele>32.34</ele><time>2011-08-31T10:50:43Z</time></trkpt><trkpt lat="52.015995" lon="-2.221449"><ele>32.34</ele><time>2011-08-31T10:50:53Z</time></trkpt><trkpt lat="52.015991" lon="-2.221492"><ele>32.82</ele><time>2011-08-31T10:51:03Z</time></trkpt><trkpt lat="52.015987" lon="-2.221549"><ele>32.34</ele><time>2011-08-31T10:51:06Z</time></trkpt><trkpt lat="52.015978" lon="-2.221635"><ele>32.34</ele><time>2011-08-31T10:51:10Z</time></trkpt><trkpt lat="52.015958" lon="-2.221797"><ele>31.86</ele><time>2011-08-31T10:51:19Z</time></trkpt><trkpt lat="52.015925" lon="-2.221968"><ele>32.82</ele><time>2011-08-31T10:51:30Z</time></trkpt><trkpt lat="52.015894" lon="-2.222122"><ele>33.30</ele><time>2011-08-31T10:51:40Z</time></trkpt><trkpt lat="52.015865" lon="-2.222264"><ele>33.78</ele><time>2011-08-31T10:51:49Z</time></trkpt><trkpt lat="52.015840" lon="-2.222404"><ele>33.78</ele><time>2011-08-31T10:51:58Z</time></trkpt><trkpt lat="52.015824" lon="-2.222526"><ele>33.78</ele><time>2011-08-31T10:52:06Z</time></trkpt><trkpt lat="52.015806" lon="-2.222635"><ele>34.26</ele><time>2011-08-31T10:52:14Z</time></trkpt><trkpt lat="52.015783" lon="-2.222759"><ele>35.23</ele><time>2011-08-31T10:52:22Z</time></trkpt><trkpt lat="52.015755" lon="-2.222876"><ele>35.23</ele><time>2011-08-31T10:52:30Z</time></trkpt><trkpt lat="52.015725" lon="-2.223016"><ele>36.67</ele><time>2011-08-31T10:52:39Z</time></trkpt><trkpt lat="52.015699" lon="-2.223130"><ele>36.67</ele><time>2011-08-31T10:52:47Z</time></trkpt><trkpt lat="52.015681" lon="-2.223233"><ele>36.67</ele><time>2011-08-31T10:52:54Z</time></trkpt><trkpt lat="52.015657" lon="-2.223341"><ele>35.71</ele><time>2011-08-31T10:53:02Z</time></trkpt><trkpt lat="52.015635" lon="-2.223479"><ele>35.71</ele><time>2011-08-31T10:53:11Z</time></trkpt><trkpt lat="52.015604" lon="-2.223614"><ele>36.19</ele><time>2011-08-31T10:53:20Z</time></trkpt><trkpt lat="52.015582" lon="-2.223736"><ele>37.15</ele><time>2011-08-31T10:53:28Z</time></trkpt><trkpt lat="52.015561" lon="-2.223852"><ele>37.15</ele><time>2011-08-31T10:53:36Z</time></trkpt><trkpt lat="52.015530" lon="-2.223993"><ele>37.63</ele><time>2011-08-31T10:53:45Z</time></trkpt><trkpt lat="52.015505" lon="-2.224132"><ele>37.15</ele><time>2011-08-31T10:53:53Z</time></trkpt><trkpt lat="52.015471" lon="-2.224293"><ele>37.63</ele><time>2011-08-31T10:54:03Z</time></trkpt><trkpt lat="52.015440" lon="-2.224468"><ele>38.11</ele><time>2011-08-31T10:54:14Z</time></trkpt><trkpt lat="52.015426" lon="-2.224534"><ele>37.63</ele><time>2011-08-31T10:54:20Z</time></trkpt><trkpt lat="52.015410" lon="-2.224627"><ele>38.11</ele><time>2011-08-31T10:54:27Z</time></trkpt><trkpt lat="52.015445" lon="-2.224687"><ele>39.07</ele><time>2011-08-31T10:54:36Z</time></trkpt><trkpt lat="52.015444" lon="-2.224685"><ele>39.07</ele><time>2011-08-31T10:54:39Z</time></trkpt><trkpt lat="52.015438" lon="-2.224717"><ele>39.07</ele><time>2011-08-31T10:54:45Z</time></trkpt><trkpt lat="52.015436" lon="-2.224722"><ele>39.07</ele><time>2011-08-31T10:55:10Z</time></trkpt><trkpt lat="52.015386" lon="-2.224754"><ele>40.03</ele><time>2011-08-31T10:55:16Z</time></trkpt><trkpt lat="52.015337" lon="-2.224765"><ele>40.51</ele><time>2011-08-31T10:55:21Z</time></trkpt><trkpt lat="52.015237" lon="-2.224724"><ele>40.03</ele><time>2011-08-31T10:55:31Z</time></trkpt><trkpt lat="52.015144" lon="-2.224666"><ele>40.99</ele><time>2011-08-31T10:55:41Z</time></trkpt><trkpt lat="52.015060" lon="-2.224614"><ele>41.95</ele><time>2011-08-31T10:55:50Z</time></trkpt><trkpt lat="52.014988" lon="-2.224574"><ele>42.44</ele><time>2011-08-31T10:55:58Z</time></trkpt><trkpt lat="52.014900" lon="-2.224528"><ele>42.92</ele><time>2011-08-31T10:56:07Z</time></trkpt><trkpt lat="52.014814" lon="-2.224497"><ele>42.92</ele><time>2011-08-31T10:56:16Z</time></trkpt><trkpt lat="52.014755" lon="-2.224486"><ele>43.40</ele><time>2011-08-31T10:56:22Z</time></trkpt><trkpt lat="52.014675" lon="-2.224453"><ele>44.36</ele><time>2011-08-31T10:56:30Z</time></trkpt><trkpt lat="52.014607" lon="-2.224371"><ele>45.32</ele><time>2011-08-31T10:56:39Z</time></trkpt><trkpt lat="52.014592" lon="-2.224354"><ele>45.32</ele><time>2011-08-31T10:56:41Z</time></trkpt><trkpt lat="52.014517" lon="-2.224313"><ele>45.32</ele><time>2011-08-31T10:56:50Z</time></trkpt><trkpt lat="52.014438" lon="-2.224279"><ele>45.80</ele><time>2011-08-31T10:56:58Z</time></trkpt><trkpt lat="52.014352" lon="-2.224240"><ele>46.76</ele><time>2011-08-31T10:57:07Z</time></trkpt><trkpt lat="52.014266" lon="-2.224207"><ele>45.80</ele><time>2011-08-31T10:57:16Z</time></trkpt><trkpt lat="52.014187" lon="-2.224167"><ele>46.76</ele><time>2011-08-31T10:57:24Z</time></trkpt><trkpt lat="52.014089" lon="-2.224135"><ele>46.76</ele><time>2011-08-31T10:57:35Z</time></trkpt><trkpt lat="52.014004" lon="-2.224093"><ele>46.76</ele><time>2011-08-31T10:57:45Z</time></trkpt><trkpt lat="52.013929" lon="-2.224027"><ele>47.72</ele><time>2011-08-31T10:57:53Z</time></trkpt><trkpt lat="52.013834" lon="-2.223960"><ele>48.20</ele><time>2011-08-31T10:58:03Z</time></trkpt><trkpt lat="52.013738" lon="-2.223885"><ele>49.16</ele><time>2011-08-31T10:58:13Z</time></trkpt><trkpt lat="52.013647" lon="-2.223817"><ele>50.13</ele><time>2011-08-31T10:58:22Z</time></trkpt><trkpt lat="52.013532" lon="-2.223750"><ele>51.09</ele><time>2011-08-31T10:58:32Z</time></trkpt><trkpt lat="52.013455" lon="-2.223705"><ele>50.61</ele><time>2011-08-31T10:58:40Z</time></trkpt><trkpt lat="52.013351" lon="-2.223658"><ele>50.13</ele><time>2011-08-31T10:58:50Z</time></trkpt><trkpt lat="52.013289" lon="-2.223616"><ele>51.09</ele><time>2011-08-31T10:58:57Z</time></trkpt><trkpt lat="52.013206" lon="-2.223566"><ele>50.61</ele><time>2011-08-31T10:59:06Z</time></trkpt><trkpt lat="52.013080" lon="-2.223503"><ele>51.09</ele><time>2011-08-31T10:59:17Z</time></trkpt><trkpt lat="52.012969" lon="-2.223435"><ele>52.53</ele><time>2011-08-31T10:59:28Z</time></trkpt><trkpt lat="52.012896" lon="-2.223395"><ele>52.53</ele><time>2011-08-31T10:59:36Z</time></trkpt><trkpt lat="52.012825" lon="-2.223332"><ele>52.53</ele><time>2011-08-31T10:59:44Z</time></trkpt><trkpt lat="52.012729" lon="-2.223270"><ele>51.57</ele><time>2011-08-31T10:59:54Z</time></trkpt><trkpt lat="52.012640" lon="-2.223220"><ele>48.68</ele><time>2011-08-31T11:00:03Z</time></trkpt><trkpt lat="52.012547" lon="-2.223144"><ele>48.20</ele><time>2011-08-31T11:00:13Z</time></trkpt><trkpt lat="52.012466" lon="-2.223085"><ele>50.13</ele><time>2011-08-31T11:00:22Z</time></trkpt><trkpt lat="52.012376" lon="-2.222987"><ele>50.61</ele><time>2011-08-31T11:00:32Z</time></trkpt><trkpt lat="52.012297" lon="-2.222903"><ele>51.57</ele><time>2011-08-31T11:00:40Z</time></trkpt><trkpt lat="52.012220" lon="-2.222800"><ele>51.57</ele><time>2011-08-31T11:00:49Z</time></trkpt><trkpt lat="52.012150" lon="-2.222703"><ele>52.53</ele><time>2011-08-31T11:00:58Z</time></trkpt><trkpt lat="52.012081" lon="-2.222636"><ele>52.05</ele><time>2011-08-31T11:01:06Z</time></trkpt><trkpt lat="52.012021" lon="-2.222551"><ele>52.05</ele><time>2011-08-31T11:01:15Z</time></trkpt><trkpt lat="52.011965" lon="-2.222500"><ele>52.53</ele><time>2011-08-31T11:01:22Z</time></trkpt><trkpt lat="52.011890" lon="-2.222428"><ele>53.01</ele><time>2011-08-31T11:01:30Z</time></trkpt><trkpt lat="52.011818" lon="-2.222320"><ele>53.01</ele><time>2011-08-31T11:01:39Z</time></trkpt><trkpt lat="52.011760" lon="-2.222212"><ele>52.05</ele><time>2011-08-31T11:01:47Z</time></trkpt><trkpt lat="52.011694" lon="-2.222104"><ele>51.09</ele><time>2011-08-31T11:01:55Z</time></trkpt><trkpt lat="52.011597" lon="-2.221973"><ele>49.65</ele><time>2011-08-31T11:02:06Z</time></trkpt><trkpt lat="52.011543" lon="-2.221901"><ele>49.16</ele><time>2011-08-31T11:02:14Z</time></trkpt><trkpt lat="52.011491" lon="-2.221825"><ele>49.65</ele><time>2011-08-31T11:02:22Z</time></trkpt><trkpt lat="52.011429" lon="-2.221760"><ele>50.13</ele><time>2011-08-31T11:02:30Z</time></trkpt><trkpt lat="52.011365" lon="-2.221668"><ele>50.13</ele><time>2011-08-31T11:02:38Z</time></trkpt><trkpt lat="52.011296" lon="-2.221593"><ele>50.61</ele><time>2011-08-31T11:02:45Z</time></trkpt><trkpt lat="52.011231" lon="-2.221493"><ele>49.65</ele><time>2011-08-31T11:02:54Z</time></trkpt><trkpt lat="52.011177" lon="-2.221413"><ele>49.16</ele><time>2011-08-31T11:03:01Z</time></trkpt><trkpt lat="52.011109" lon="-2.221342"><ele>48.20</ele><time>2011-08-31T11:03:08Z</time></trkpt><trkpt lat="52.011037" lon="-2.221262"><ele>46.28</ele><time>2011-08-31T11:03:17Z</time></trkpt><trkpt lat="52.010971" lon="-2.221162"><ele>45.80</ele><time>2011-08-31T11:03:26Z</time></trkpt><trkpt lat="52.010906" lon="-2.221074"><ele>44.36</ele><time>2011-08-31T11:03:35Z</time></trkpt><trkpt lat="52.010810" lon="-2.220943"><ele>42.92</ele><time>2011-08-31T11:03:46Z</time></trkpt><trkpt lat="52.010739" lon="-2.220876"><ele>41.95</ele><time>2011-08-31T11:03:53Z</time></trkpt><trkpt lat="52.010649" lon="-2.220756"><ele>38.59</ele><time>2011-08-31T11:04:05Z</time></trkpt><trkpt lat="52.010571" lon="-2.220671"><ele>37.15</ele><time>2011-08-31T11:04:14Z</time></trkpt><trkpt lat="52.010494" lon="-2.220579"><ele>37.15</ele><time>2011-08-31T11:04:23Z</time></trkpt><trkpt lat="52.010436" lon="-2.220518"><ele>36.19</ele><time>2011-08-31T11:04:31Z</time></trkpt><trkpt lat="52.010372" lon="-2.220448"><ele>35.71</ele><time>2011-08-31T11:04:40Z</time></trkpt><trkpt lat="52.010253" lon="-2.220364"><ele>36.67</ele><time>2011-08-31T11:04:50Z</time></trkpt><trkpt lat="52.010181" lon="-2.220365"><ele>37.15</ele><time>2011-08-31T11:04:58Z</time></trkpt><trkpt lat="52.010157" lon="-2.220340"><ele>37.15</ele><time>2011-08-31T11:05:04Z</time></trkpt><trkpt lat="52.010108" lon="-2.220286"><ele>36.67</ele><time>2011-08-31T11:05:12Z</time></trkpt><trkpt lat="52.010094" lon="-2.220291"><ele>36.19</ele><time>2011-08-31T11:05:14Z</time></trkpt><trkpt lat="52.010054" lon="-2.220324"><ele>36.19</ele><time>2011-08-31T11:05:23Z</time></trkpt><trkpt lat="52.010052" lon="-2.220327"><ele>36.19</ele><time>2011-08-31T11:05:38Z</time></trkpt><trkpt lat="52.010055" lon="-2.220306"><ele>36.67</ele><time>2011-08-31T11:05:45Z</time></trkpt><trkpt lat="52.010030" lon="-2.220203"><ele>36.19</ele><time>2011-08-31T11:05:54Z</time></trkpt><trkpt lat="52.009971" lon="-2.220180"><ele>34.26</ele><time>2011-08-31T11:06:00Z</time></trkpt><trkpt lat="52.009910" lon="-2.220242"><ele>34.26</ele><time>2011-08-31T11:06:08Z</time></trkpt><trkpt lat="52.009898" lon="-2.220241"><ele>33.78</ele><time>2011-08-31T11:06:14Z</time></trkpt><trkpt lat="52.009858" lon="-2.220167"><ele>34.74</ele><time>2011-08-31T11:06:20Z</time></trkpt><trkpt lat="52.009762" lon="-2.220113"><ele>35.23</ele><time>2011-08-31T11:06:29Z</time></trkpt><trkpt lat="52.009666" lon="-2.220065"><ele>34.74</ele><time>2011-08-31T11:06:38Z</time></trkpt><trkpt lat="52.009594" lon="-2.220038"><ele>34.74</ele><time>2011-08-31T11:06:46Z</time></trkpt><trkpt lat="52.009518" lon="-2.220012"><ele>33.78</ele><time>2011-08-31T11:06:54Z</time></trkpt><trkpt lat="52.009444" lon="-2.219959"><ele>33.30</ele><time>2011-08-31T11:07:03Z</time></trkpt><trkpt lat="52.009395" lon="-2.219855"><ele>32.82</ele><time>2011-08-31T11:07:13Z</time></trkpt><trkpt lat="52.009374" lon="-2.219842"><ele>32.82</ele><time>2011-08-31T11:07:25Z</time></trkpt><trkpt lat="52.009357" lon="-2.219838"><ele>33.78</ele><time>2011-08-31T11:07:31Z</time></trkpt><trkpt lat="52.009268" lon="-2.219865"><ele>33.78</ele><time>2011-08-31T11:07:40Z</time></trkpt><trkpt lat="52.009183" lon="-2.219866"><ele>34.26</ele><time>2011-08-31T11:07:48Z</time></trkpt><trkpt lat="52.009106" lon="-2.219846"><ele>34.26</ele><time>2011-08-31T11:07:55Z</time></trkpt><trkpt lat="52.009025" lon="-2.219829"><ele>33.30</ele><time>2011-08-31T11:08:03Z</time></trkpt><trkpt lat="52.008929" lon="-2.219792"><ele>33.30</ele><time>2011-08-31T11:08:12Z</time></trkpt><trkpt lat="52.008833" lon="-2.219760"><ele>34.26</ele><time>2011-08-31T11:08:22Z</time></trkpt><trkpt lat="52.008757" lon="-2.219748"><ele>34.74</ele><time>2011-08-31T11:08:30Z</time></trkpt><trkpt lat="52.008734" lon="-2.219765"><ele>36.67</ele><time>2011-08-31T11:08:38Z</time></trkpt><trkpt lat="52.008663" lon="-2.219727"><ele>36.67</ele><time>2011-08-31T11:08:49Z</time></trkpt><trkpt lat="52.008558" lon="-2.219696"><ele>36.19</ele><time>2011-08-31T11:08:56Z</time></trkpt><trkpt lat="52.008491" lon="-2.219672"><ele>35.71</ele><time>2011-08-31T11:09:03Z</time></trkpt><trkpt lat="52.008426" lon="-2.219638"><ele>35.23</ele><time>2011-08-31T11:09:10Z</time></trkpt><trkpt lat="52.008349" lon="-2.219624"><ele>34.26</ele><time>2011-08-31T11:09:19Z</time></trkpt><trkpt lat="52.008268" lon="-2.219611"><ele>33.78</ele><time>2011-08-31T11:09:27Z</time></trkpt><trkpt lat="52.008198" lon="-2.219600"><ele>32.82</ele><time>2011-08-31T11:09:34Z</time></trkpt><trkpt lat="52.008140" lon="-2.219594"><ele>31.86</ele><time>2011-08-31T11:09:41Z</time></trkpt><trkpt lat="52.008043" lon="-2.219559"><ele>32.34</ele><time>2011-08-31T11:09:50Z</time></trkpt><trkpt lat="52.007924" lon="-2.219528"><ele>31.38</ele><time>2011-08-31T11:10:00Z</time></trkpt><trkpt lat="52.007820" lon="-2.219502"><ele>31.38</ele><time>2011-08-31T11:10:09Z</time></trkpt><trkpt lat="52.007747" lon="-2.219486"><ele>31.86</ele><time>2011-08-31T11:10:15Z</time></trkpt><trkpt lat="52.007676" lon="-2.219463"><ele>30.90</ele><time>2011-08-31T11:10:22Z</time></trkpt><trkpt lat="52.007611" lon="-2.219447"><ele>31.38</ele><time>2011-08-31T11:10:28Z</time></trkpt><trkpt lat="52.007501" lon="-2.219405"><ele>31.38</ele><time>2011-08-31T11:10:38Z</time></trkpt><trkpt lat="52.007409" lon="-2.219372"><ele>32.82</ele><time>2011-08-31T11:10:46Z</time></trkpt><trkpt lat="52.007336" lon="-2.219353"><ele>32.82</ele><time>2011-08-31T11:10:54Z</time></trkpt><trkpt lat="52.007254" lon="-2.219349"><ele>32.34</ele><time>2011-08-31T11:11:02Z</time></trkpt><trkpt lat="52.007150" lon="-2.219318"><ele>30.90</ele><time>2011-08-31T11:11:11Z</time></trkpt><trkpt lat="52.007059" lon="-2.219296"><ele>29.46</ele><time>2011-08-31T11:11:19Z</time></trkpt><trkpt lat="52.006972" lon="-2.219254"><ele>28.98</ele><time>2011-08-31T11:11:29Z</time></trkpt><trkpt lat="52.006863" lon="-2.219195"><ele>29.94</ele><time>2011-08-31T11:11:39Z</time></trkpt><trkpt lat="52.006764" lon="-2.219161"><ele>30.42</ele><time>2011-08-31T11:11:48Z</time></trkpt><trkpt lat="52.006678" lon="-2.219131"><ele>32.82</ele><time>2011-08-31T11:11:57Z</time></trkpt><trkpt lat="52.006665" lon="-2.219122"><ele>34.74</ele><time>2011-08-31T11:12:12Z</time></trkpt><trkpt lat="52.006636" lon="-2.219107"><ele>35.71</ele><time>2011-08-31T11:12:18Z</time></trkpt><trkpt lat="52.006552" lon="-2.219074"><ele>37.63</ele><time>2011-08-31T11:12:26Z</time></trkpt><trkpt lat="52.006522" lon="-2.219060"><ele>38.11</ele><time>2011-08-31T11:12:29Z</time></trkpt><trkpt lat="52.006490" lon="-2.219042"><ele>38.11</ele><time>2011-08-31T11:12:32Z</time></trkpt><trkpt lat="52.006398" lon="-2.218996"><ele>37.63</ele><time>2011-08-31T11:12:42Z</time></trkpt><trkpt lat="52.006330" lon="-2.218966"><ele>38.11</ele><time>2011-08-31T11:12:49Z</time></trkpt><trkpt lat="52.006289" lon="-2.218964"><ele>38.11</ele><time>2011-08-31T11:12:56Z</time></trkpt><trkpt lat="52.006217" lon="-2.218907"><ele>38.11</ele><time>2011-08-31T11:13:03Z</time></trkpt><trkpt lat="52.006076" lon="-2.218893"><ele>37.63</ele><time>2011-08-31T11:13:15Z</time></trkpt><trkpt lat="52.005976" lon="-2.218873"><ele>38.11</ele><time>2011-08-31T11:13:24Z</time></trkpt><trkpt lat="52.005902" lon="-2.218858"><ele>38.59</ele><time>2011-08-31T11:13:32Z</time></trkpt><trkpt lat="52.005838" lon="-2.218862"><ele>38.59</ele><time>2011-08-31T11:13:40Z</time></trkpt><trkpt lat="52.005728" lon="-2.218836"><ele>38.59</ele><time>2011-08-31T11:13:51Z</time></trkpt><trkpt lat="52.005611" lon="-2.218778"><ele>39.07</ele><time>2011-08-31T11:14:03Z</time></trkpt><trkpt lat="52.005568" lon="-2.218768"><ele>40.03</ele><time>2011-08-31T11:14:09Z</time></trkpt><trkpt lat="52.005518" lon="-2.218753"><ele>40.03</ele><time>2011-08-31T11:14:16Z</time></trkpt><trkpt lat="52.005510" lon="-2.218758"><ele>40.51</ele><time>2011-08-31T11:14:24Z</time></trkpt><trkpt lat="52.005449" lon="-2.218703"><ele>40.51</ele><time>2011-08-31T11:14:32Z</time></trkpt><trkpt lat="52.005373" lon="-2.218644"><ele>40.51</ele><time>2011-08-31T11:14:41Z</time></trkpt><trkpt lat="52.005262" lon="-2.218575"><ele>40.51</ele><time>2011-08-31T11:14:51Z</time></trkpt><trkpt lat="52.005206" lon="-2.218521"><ele>41.95</ele><time>2011-08-31T11:14:58Z</time></trkpt><trkpt lat="52.005117" lon="-2.218450"><ele>43.40</ele><time>2011-08-31T11:15:07Z</time></trkpt><trkpt lat="52.005059" lon="-2.218410"><ele>43.40</ele><time>2011-08-31T11:15:14Z</time></trkpt><trkpt lat="52.004992" lon="-2.218367"><ele>42.92</ele><time>2011-08-31T11:15:22Z</time></trkpt><trkpt lat="52.004916" lon="-2.218306"><ele>42.44</ele><time>2011-08-31T11:15:31Z</time></trkpt><trkpt lat="52.004863" lon="-2.218259"><ele>42.92</ele><time>2011-08-31T11:15:38Z</time></trkpt><trkpt lat="52.004775" lon="-2.218195"><ele>43.88</ele><time>2011-08-31T11:15:48Z</time></trkpt><trkpt lat="52.004736" lon="-2.218174"><ele>43.88</ele><time>2011-08-31T11:15:54Z</time></trkpt><trkpt lat="52.004663" lon="-2.218116"><ele>44.36</ele><time>2011-08-31T11:16:03Z</time></trkpt><trkpt lat="52.004654" lon="-2.218114"><ele>44.36</ele><time>2011-08-31T11:16:04Z</time></trkpt><trkpt lat="52.004623" lon="-2.218138"><ele>44.36</ele><time>2011-08-31T11:16:08Z</time></trkpt><trkpt lat="52.004575" lon="-2.218207"><ele>44.84</ele><time>2011-08-31T11:16:16Z</time></trkpt><trkpt lat="52.004555" lon="-2.218224"><ele>45.32</ele><time>2011-08-31T11:16:26Z</time></trkpt><trkpt lat="52.004555" lon="-2.218231"><ele>44.84</ele><time>2011-08-31T11:16:37Z</time></trkpt><trkpt lat="52.004553" lon="-2.218231"><ele>44.84</ele><time>2011-08-31T11:16:39Z</time></trkpt><trkpt lat="52.004534" lon="-2.218235"><ele>44.36</ele><time>2011-08-31T11:16:47Z</time></trkpt><trkpt lat="52.004482" lon="-2.218295"><ele>44.36</ele><time>2011-08-31T11:16:57Z</time></trkpt><trkpt lat="52.004466" lon="-2.218373"><ele>43.40</ele><time>2011-08-31T11:17:17Z</time></trkpt><trkpt lat="52.004449" lon="-2.218469"><ele>43.40</ele><time>2011-08-31T11:17:25Z</time></trkpt><trkpt lat="52.004428" lon="-2.218552"><ele>42.92</ele><time>2011-08-31T11:17:37Z</time></trkpt><trkpt lat="52.004378" lon="-2.218758"><ele>41.95</ele><time>2011-08-31T11:17:51Z</time></trkpt><trkpt lat="52.004360" lon="-2.218810"><ele>41.95</ele><time>2011-08-31T11:17:59Z</time></trkpt><trkpt lat="52.004313" lon="-2.218975"><ele>40.99</ele><time>2011-08-31T11:18:12Z</time></trkpt><trkpt lat="52.004303" lon="-2.219074"><ele>40.99</ele><time>2011-08-31T11:18:22Z</time></trkpt><trkpt lat="52.004290" lon="-2.219146"><ele>40.99</ele><time>2011-08-31T11:18:37Z</time></trkpt><trkpt lat="52.004260" lon="-2.219249"><ele>40.99</ele><time>2011-08-31T11:18:46Z</time></trkpt><trkpt lat="52.004251" lon="-2.219267"><ele>39.55</ele><time>2011-08-31T11:19:00Z</time></trkpt><trkpt lat="52.004219" lon="-2.219340"><ele>39.55</ele><time>2011-08-31T11:19:14Z</time></trkpt><trkpt lat="52.004160" lon="-2.219478"><ele>40.51</ele><time>2011-08-31T11:19:23Z</time></trkpt><trkpt lat="52.004105" lon="-2.219588"><ele>40.99</ele><time>2011-08-31T11:19:31Z</time></trkpt><trkpt lat="52.004021" lon="-2.219734"><ele>41.47</ele><time>2011-08-31T11:19:42Z</time></trkpt><trkpt lat="52.003957" lon="-2.219886"><ele>40.99</ele><time>2011-08-31T11:19:54Z</time></trkpt><trkpt lat="52.003913" lon="-2.220022"><ele>41.47</ele><time>2011-08-31T11:20:04Z</time></trkpt><trkpt lat="52.003913" lon="-2.220115"><ele>42.44</ele><time>2011-08-31T11:20:12Z</time></trkpt><trkpt lat="52.003918" lon="-2.220121"><ele>41.95</ele><time>2011-08-31T11:20:19Z</time></trkpt><trkpt lat="52.003943" lon="-2.220175"><ele>41.47</ele><time>2011-08-31T11:20:27Z</time></trkpt><trkpt lat="52.003929" lon="-2.220179"><ele>42.44</ele><time>2011-08-31T11:20:42Z</time></trkpt><trkpt lat="52.003885" lon="-2.220351"><ele>41.47</ele><time>2011-08-31T11:20:55Z</time></trkpt><trkpt lat="52.003828" lon="-2.220457"><ele>41.47</ele><time>2011-08-31T11:21:06Z</time></trkpt><trkpt lat="52.003805" lon="-2.220503"><ele>41.95</ele><time>2011-08-31T11:21:13Z</time></trkpt><trkpt lat="52.003769" lon="-2.220576"><ele>42.44</ele><time>2011-08-31T11:21:22Z</time></trkpt><trkpt lat="52.003705" lon="-2.220699"><ele>42.44</ele><time>2011-08-31T11:21:32Z</time></trkpt><trkpt lat="52.003656" lon="-2.220799"><ele>42.44</ele><time>2011-08-31T11:21:40Z</time></trkpt><trkpt lat="52.003592" lon="-2.220933"><ele>42.92</ele><time>2011-08-31T11:21:50Z</time></trkpt><trkpt lat="52.003538" lon="-2.221080"><ele>42.44</ele><time>2011-08-31T11:22:00Z</time></trkpt><trkpt lat="52.003478" lon="-2.221241"><ele>41.95</ele><time>2011-08-31T11:22:11Z</time></trkpt><trkpt lat="52.003420" lon="-2.221392"><ele>42.44</ele><time>2011-08-31T11:22:21Z</time></trkpt><trkpt lat="52.003366" lon="-2.221537"><ele>41.95</ele><time>2011-08-31T11:22:31Z</time></trkpt><trkpt lat="52.003294" lon="-2.221722"><ele>41.95</ele><time>2011-08-31T11:22:44Z</time></trkpt><trkpt lat="52.003227" lon="-2.221894"><ele>41.95</ele><time>2011-08-31T11:22:56Z</time></trkpt><trkpt lat="52.003177" lon="-2.222006"><ele>40.99</ele><time>2011-08-31T11:23:05Z</time></trkpt><trkpt lat="52.003132" lon="-2.222137"><ele>40.03</ele><time>2011-08-31T11:23:14Z</time></trkpt><trkpt lat="52.003102" lon="-2.222199"><ele>39.07</ele><time>2011-08-31T11:23:22Z</time></trkpt><trkpt lat="52.003067" lon="-2.222310"><ele>38.11</ele><time>2011-08-31T11:23:30Z</time></trkpt><trkpt lat="52.003004" lon="-2.222470"><ele>39.55</ele><time>2011-08-31T11:23:40Z</time></trkpt><trkpt lat="52.002931" lon="-2.222597"><ele>40.51</ele><time>2011-08-31T11:23:49Z</time></trkpt><trkpt lat="52.002859" lon="-2.222728"><ele>41.47</ele><time>2011-08-31T11:23:59Z</time></trkpt><trkpt lat="52.002784" lon="-2.222854"><ele>41.95</ele><time>2011-08-31T11:24:09Z</time></trkpt><trkpt lat="52.002714" lon="-2.222971"><ele>42.92</ele><time>2011-08-31T11:24:19Z</time></trkpt><trkpt lat="52.002664" lon="-2.223093"><ele>44.36</ele><time>2011-08-31T11:24:28Z</time></trkpt><trkpt lat="52.002602" lon="-2.223267"><ele>45.32</ele><time>2011-08-31T11:24:39Z</time></trkpt><trkpt lat="52.002544" lon="-2.223428"><ele>46.28</ele><time>2011-08-31T11:24:50Z</time></trkpt><trkpt lat="52.002485" lon="-2.223610"><ele>46.76</ele><time>2011-08-31T11:25:01Z</time></trkpt><trkpt lat="52.002411" lon="-2.223785"><ele>47.72</ele><time>2011-08-31T11:25:13Z</time></trkpt><trkpt lat="52.002337" lon="-2.223980"><ele>48.68</ele><time>2011-08-31T11:25:26Z</time></trkpt><trkpt lat="52.002263" lon="-2.224159"><ele>48.68</ele><time>2011-08-31T11:25:38Z</time></trkpt><trkpt lat="52.002232" lon="-2.224237"><ele>48.20</ele><time>2011-08-31T11:25:48Z</time></trkpt><trkpt lat="52.002231" lon="-2.224242"><ele>48.20</ele><time>2011-08-31T11:25:49Z</time></trkpt><trkpt lat="52.002271" lon="-2.224369"><ele>48.20</ele><time>2011-08-31T11:25:57Z</time></trkpt><trkpt lat="52.002372" lon="-2.224540"><ele>47.72</ele><time>2011-08-31T11:26:08Z</time></trkpt><trkpt lat="52.002432" lon="-2.224634"><ele>48.68</ele><time>2011-08-31T11:26:16Z</time></trkpt><trkpt lat="52.002494" lon="-2.224713"><ele>48.20</ele><time>2011-08-31T11:26:24Z</time></trkpt><trkpt lat="52.002585" lon="-2.224807"><ele>48.68</ele><time>2011-08-31T11:26:34Z</time></trkpt><trkpt lat="52.002628" lon="-2.224867"><ele>48.20</ele><time>2011-08-31T11:26:40Z</time></trkpt><trkpt lat="52.002686" lon="-2.224927"><ele>47.72</ele><time>2011-08-31T11:26:47Z</time></trkpt><trkpt lat="52.002824" lon="-2.225034"><ele>47.72</ele><time>2011-08-31T11:26:59Z</time></trkpt><trkpt lat="52.002957" lon="-2.225130"><ele>47.24</ele><time>2011-08-31T11:27:11Z</time></trkpt><trkpt lat="52.003078" lon="-2.225232"><ele>47.72</ele><time>2011-08-31T11:27:22Z</time></trkpt><trkpt lat="52.003189" lon="-2.225310"><ele>48.20</ele><time>2011-08-31T11:27:33Z</time></trkpt><trkpt lat="52.003256" lon="-2.225361"><ele>47.24</ele><time>2011-08-31T11:27:41Z</time></trkpt><trkpt lat="52.003250" lon="-2.225490"><ele>47.24</ele><time>2011-08-31T11:27:51Z</time></trkpt><trkpt lat="52.003282" lon="-2.225612"><ele>46.76</ele><time>2011-08-31T11:28:00Z</time></trkpt><trkpt lat="52.003301" lon="-2.225596"><ele>46.28</ele><time>2011-08-31T11:28:07Z</time></trkpt></trkseg></trk></gpx>